<?xml version="1.0" encoding="UTF-8" standalone="no" ?>
<gpx xmlns="http://www.topografix.com/GPX/1/1" xmlns:xsi="http://www.w3.org/2001/XMLSchema-instance" xsi:schemaLocation="http://www.topografix.com/GPX/1/1 http://www.topografix.com/GPX/1/1/gpx.xsd" version="1.1" creator="VisuGPX - https://www.visugpx.com">
  <metadata>
    <name>Belley / Boissieu1</name>
    <desc><![CDATA[Ain - Bugey.
boucle au départ de Belley.
passage à Vieugey, Le Plâtre, Bognens, le champ de tir, Boissieu, Gevrin, les lapiaz de Chazey-Bons, forêt d'Andert, les Baraques, Bognens, Bilignin.]]></desc>
  </metadata>
  <trk>
    <name><![CDATA[20181001230340-o7YVr]]></name>
    <trkseg>
      <trkpt lat="45.75801" lon="5.68906">
        <ele>275.07</ele>
        <time>2012-06-06T11:34:17Z</time>
      </trkpt>
      <trkpt lat="45.75766" lon="5.68862">
        <ele>282.77</ele>
        <time>2012-06-06T11:50:45Z</time>
      </trkpt>
      <trkpt lat="45.75753" lon="5.68879">
        <ele>283.73</ele>
        <time>2012-06-06T11:50:54Z</time>
      </trkpt>
      <trkpt lat="45.75716" lon="5.6887">
        <ele>286.13</ele>
        <time>2012-06-06T11:51:15Z</time>
      </trkpt>
      <trkpt lat="45.75696" lon="5.68896">
        <ele>286.61</ele>
        <time>2012-06-06T11:51:26Z</time>
      </trkpt>
      <trkpt lat="45.75675" lon="5.68919">
        <ele>287.57</ele>
        <time>2012-06-06T11:51:35Z</time>
      </trkpt>
      <trkpt lat="45.75657" lon="5.68913">
        <ele>288.05</ele>
        <time>2012-06-06T11:51:42Z</time>
      </trkpt>
      <trkpt lat="45.75637" lon="5.68866">
        <ele>290.46</ele>
        <time>2012-06-06T11:52:05Z</time>
      </trkpt>
      <trkpt lat="45.7562" lon="5.6884">
        <ele>291.42</ele>
        <time>2012-06-06T11:52:15Z</time>
      </trkpt>
      <trkpt lat="45.75574" lon="5.68805">
        <ele>292.38</ele>
        <time>2012-06-06T11:52:29Z</time>
      </trkpt>
      <trkpt lat="45.75493" lon="5.68745">
        <ele>296.7</ele>
        <time>2012-06-06T11:52:58Z</time>
      </trkpt>
      <trkpt lat="45.75502" lon="5.68671">
        <ele>295.74</ele>
        <time>2012-06-06T11:53:11Z</time>
      </trkpt>
      <trkpt lat="45.75512" lon="5.68625">
        <ele>296.22</ele>
        <time>2012-06-06T11:53:23Z</time>
      </trkpt>
      <trkpt lat="45.75549" lon="5.68622">
        <ele>295.26</ele>
        <time>2012-06-06T11:53:32Z</time>
      </trkpt>
      <trkpt lat="45.75582" lon="5.6862">
        <ele>293.34</ele>
        <time>2012-06-06T11:53:38Z</time>
      </trkpt>
      <trkpt lat="45.75571" lon="5.6855">
        <ele>293.82</ele>
        <time>2012-06-06T11:53:54Z</time>
      </trkpt>
      <trkpt lat="45.75559" lon="5.68498">
        <ele>295.26</ele>
        <time>2012-06-06T11:54:06Z</time>
      </trkpt>
      <trkpt lat="45.75558" lon="5.68467">
        <ele>294.78</ele>
        <time>2012-06-06T11:54:11Z</time>
      </trkpt>
      <trkpt lat="45.75571" lon="5.68397">
        <ele>294.3</ele>
        <time>2012-06-06T11:54:20Z</time>
      </trkpt>
      <trkpt lat="45.75579" lon="5.68377">
        <ele>293.82</ele>
        <time>2012-06-06T11:54:23Z</time>
      </trkpt>
      <trkpt lat="45.75582" lon="5.6836">
        <ele>293.82</ele>
        <time>2012-06-06T11:54:25Z</time>
      </trkpt>
      <trkpt lat="45.75581" lon="5.68344">
        <ele>293.82</ele>
        <time>2012-06-06T11:54:27Z</time>
      </trkpt>
      <trkpt lat="45.75581" lon="5.68327">
        <ele>293.34</ele>
        <time>2012-06-06T11:54:29Z</time>
      </trkpt>
      <trkpt lat="45.75604" lon="5.68166">
        <ele>295.74</ele>
        <time>2012-06-06T11:55:36Z</time>
      </trkpt>
      <trkpt lat="45.7558" lon="5.68148">
        <ele>296.22</ele>
        <time>2012-06-06T11:55:43Z</time>
      </trkpt>
      <trkpt lat="45.75524" lon="5.68099">
        <ele>297.67</ele>
        <time>2012-06-06T11:55:58Z</time>
      </trkpt>
      <trkpt lat="45.75503" lon="5.68075">
        <ele>298.15</ele>
        <time>2012-06-06T11:56:04Z</time>
      </trkpt>
      <trkpt lat="45.75497" lon="5.68061">
        <ele>298.15</ele>
        <time>2012-06-06T11:56:07Z</time>
      </trkpt>
      <trkpt lat="45.75494" lon="5.68037">
        <ele>298.15</ele>
        <time>2012-06-06T11:56:11Z</time>
      </trkpt>
      <trkpt lat="45.75502" lon="5.67998">
        <ele>298.15</ele>
        <time>2012-06-06T11:56:17Z</time>
      </trkpt>
      <trkpt lat="45.75496" lon="5.67961">
        <ele>298.15</ele>
        <time>2012-06-06T11:56:23Z</time>
      </trkpt>
      <trkpt lat="45.75492" lon="5.6795">
        <ele>298.15</ele>
        <time>2012-06-06T11:56:25Z</time>
      </trkpt>
      <trkpt lat="45.75486" lon="5.6794">
        <ele>298.15</ele>
        <time>2012-06-06T11:56:27Z</time>
      </trkpt>
      <trkpt lat="45.75479" lon="5.67931">
        <ele>297.67</ele>
        <time>2012-06-06T11:56:29Z</time>
      </trkpt>
      <trkpt lat="45.75406" lon="5.67843">
        <ele>296.22</ele>
        <time>2012-06-06T11:56:47Z</time>
      </trkpt>
      <trkpt lat="45.75339" lon="5.67743">
        <ele>295.74</ele>
        <time>2012-06-06T11:57:04Z</time>
      </trkpt>
      <trkpt lat="45.75306" lon="5.67637">
        <ele>295.26</ele>
        <time>2012-06-06T11:57:18Z</time>
      </trkpt>
      <trkpt lat="45.75283" lon="5.67538">
        <ele>296.7</ele>
        <time>2012-06-06T11:57:31Z</time>
      </trkpt>
      <trkpt lat="45.75282" lon="5.67522">
        <ele>296.7</ele>
        <time>2012-06-06T11:57:33Z</time>
      </trkpt>
      <trkpt lat="45.75284" lon="5.67506">
        <ele>297.18</ele>
        <time>2012-06-06T11:57:35Z</time>
      </trkpt>
      <trkpt lat="45.75293" lon="5.67457">
        <ele>300.07</ele>
        <time>2012-06-06T11:57:42Z</time>
      </trkpt>
      <trkpt lat="45.75294" lon="5.67445">
        <ele>300.55</ele>
        <time>2012-06-06T11:57:44Z</time>
      </trkpt>
      <trkpt lat="45.75292" lon="5.67427">
        <ele>301.99</ele>
        <time>2012-06-06T11:57:47Z</time>
      </trkpt>
      <trkpt lat="45.75291" lon="5.67378">
        <ele>304.39</ele>
        <time>2012-06-06T11:57:57Z</time>
      </trkpt>
      <trkpt lat="45.75292" lon="5.67365">
        <ele>303.91</ele>
        <time>2012-06-06T11:57:59Z</time>
      </trkpt>
      <trkpt lat="45.75294" lon="5.67349">
        <ele>303.43</ele>
        <time>2012-06-06T11:58:01Z</time>
      </trkpt>
      <trkpt lat="45.75295" lon="5.67332">
        <ele>302.95</ele>
        <time>2012-06-06T11:58:03Z</time>
      </trkpt>
      <trkpt lat="45.75302" lon="5.6727">
        <ele>301.03</ele>
        <time>2012-06-06T11:58:10Z</time>
      </trkpt>
      <trkpt lat="45.75306" lon="5.67211">
        <ele>300.07</ele>
        <time>2012-06-06T11:58:17Z</time>
      </trkpt>
      <trkpt lat="45.753" lon="5.67176">
        <ele>299.11</ele>
        <time>2012-06-06T11:58:25Z</time>
      </trkpt>
      <trkpt lat="45.75284" lon="5.67148">
        <ele>297.18</ele>
        <time>2012-06-06T11:58:30Z</time>
      </trkpt>
      <trkpt lat="45.75258" lon="5.67107">
        <ele>293.82</ele>
        <time>2012-06-06T11:58:35Z</time>
      </trkpt>
      <trkpt lat="45.75244" lon="5.67077">
        <ele>292.38</ele>
        <time>2012-06-06T11:58:38Z</time>
      </trkpt>
      <trkpt lat="45.75232" lon="5.67023">
        <ele>289.49</ele>
        <time>2012-06-06T11:58:44Z</time>
      </trkpt>
      <trkpt lat="45.7523" lon="5.66995">
        <ele>287.57</ele>
        <time>2012-06-06T11:58:47Z</time>
      </trkpt>
      <trkpt lat="45.75226" lon="5.66946">
        <ele>284.69</ele>
        <time>2012-06-06T11:58:51Z</time>
      </trkpt>
      <trkpt lat="45.75219" lon="5.6691">
        <ele>282.28</ele>
        <time>2012-06-06T11:58:54Z</time>
      </trkpt>
      <trkpt lat="45.7521" lon="5.6689">
        <ele>281.32</ele>
        <time>2012-06-06T11:58:56Z</time>
      </trkpt>
      <trkpt lat="45.75197" lon="5.66876">
        <ele>280.84</ele>
        <time>2012-06-06T11:58:58Z</time>
      </trkpt>
      <trkpt lat="45.75165" lon="5.66844">
        <ele>279.88</ele>
        <time>2012-06-06T11:59:03Z</time>
      </trkpt>
      <trkpt lat="45.75156" lon="5.66828">
        <ele>278.92</ele>
        <time>2012-06-06T11:59:05Z</time>
      </trkpt>
      <trkpt lat="45.75148" lon="5.66808">
        <ele>277.48</ele>
        <time>2012-06-06T11:59:07Z</time>
      </trkpt>
      <trkpt lat="45.75141" lon="5.66783">
        <ele>275.56</ele>
        <time>2012-06-06T11:59:09Z</time>
      </trkpt>
      <trkpt lat="45.75138" lon="5.66753">
        <ele>274.11</ele>
        <time>2012-06-06T11:59:11Z</time>
      </trkpt>
      <trkpt lat="45.75135" lon="5.66669">
        <ele>269.79</ele>
        <time>2012-06-06T11:59:16Z</time>
      </trkpt>
      <trkpt lat="45.75128" lon="5.66614">
        <ele>266.9</ele>
        <time>2012-06-06T11:59:20Z</time>
      </trkpt>
      <trkpt lat="45.7512" lon="5.66559">
        <ele>265.94</ele>
        <time>2012-06-06T11:59:26Z</time>
      </trkpt>
      <trkpt lat="45.75109" lon="5.66512">
        <ele>264.98</ele>
        <time>2012-06-06T11:59:33Z</time>
      </trkpt>
      <trkpt lat="45.75109" lon="5.66499">
        <ele>263.06</ele>
        <time>2012-06-06T11:59:35Z</time>
      </trkpt>
      <trkpt lat="45.75113" lon="5.66486">
        <ele>261.14</ele>
        <time>2012-06-06T11:59:37Z</time>
      </trkpt>
      <trkpt lat="45.75119" lon="5.66476">
        <ele>259.21</ele>
        <time>2012-06-06T11:59:39Z</time>
      </trkpt>
      <trkpt lat="45.75129" lon="5.66463">
        <ele>258.25</ele>
        <time>2012-06-06T11:59:42Z</time>
      </trkpt>
      <trkpt lat="45.7517" lon="5.66439">
        <ele>256.33</ele>
        <time>2012-06-06T11:59:51Z</time>
      </trkpt>
      <trkpt lat="45.7521" lon="5.6642">
        <ele>253.44</ele>
        <time>2012-06-06T11:59:58Z</time>
      </trkpt>
      <trkpt lat="45.75263" lon="5.66403">
        <ele>248.64</ele>
        <time>2012-06-06T12:00:11Z</time>
      </trkpt>
      <trkpt lat="45.75309" lon="5.66404">
        <ele>246.72</ele>
        <time>2012-06-06T12:00:22Z</time>
      </trkpt>
      <trkpt lat="45.75335" lon="5.66398">
        <ele>246.72</ele>
        <time>2012-06-06T12:00:28Z</time>
      </trkpt>
      <trkpt lat="45.75341" lon="5.66388">
        <ele>246.23</ele>
        <time>2012-06-06T12:00:30Z</time>
      </trkpt>
      <trkpt lat="45.75345" lon="5.66373">
        <ele>245.75</ele>
        <time>2012-06-06T12:00:32Z</time>
      </trkpt>
      <trkpt lat="45.75347" lon="5.66357">
        <ele>244.31</ele>
        <time>2012-06-06T12:00:34Z</time>
      </trkpt>
      <trkpt lat="45.75348" lon="5.66343">
        <ele>243.35</ele>
        <time>2012-06-06T12:00:36Z</time>
      </trkpt>
      <trkpt lat="45.75342" lon="5.66332">
        <ele>243.35</ele>
        <time>2012-06-06T12:00:38Z</time>
      </trkpt>
      <trkpt lat="45.75333" lon="5.66328">
        <ele>242.87</ele>
        <time>2012-06-06T12:00:40Z</time>
      </trkpt>
      <trkpt lat="45.75323" lon="5.66324">
        <ele>242.39</ele>
        <time>2012-06-06T12:00:42Z</time>
      </trkpt>
      <trkpt lat="45.75315" lon="5.66315">
        <ele>242.39</ele>
        <time>2012-06-06T12:00:44Z</time>
      </trkpt>
      <trkpt lat="45.75312" lon="5.66301">
        <ele>241.91</ele>
        <time>2012-06-06T12:00:46Z</time>
      </trkpt>
      <trkpt lat="45.75312" lon="5.66284">
        <ele>241.43</ele>
        <time>2012-06-06T12:00:48Z</time>
      </trkpt>
      <trkpt lat="45.75316" lon="5.66258">
        <ele>241.43</ele>
        <time>2012-06-06T12:00:51Z</time>
      </trkpt>
      <trkpt lat="45.75327" lon="5.66185">
        <ele>240.95</ele>
        <time>2012-06-06T12:01:01Z</time>
      </trkpt>
      <trkpt lat="45.75335" lon="5.66143">
        <ele>240.47</ele>
        <time>2012-06-06T12:01:10Z</time>
      </trkpt>
      <trkpt lat="45.75397" lon="5.66152">
        <ele>240.47</ele>
        <time>2012-06-06T12:01:26Z</time>
      </trkpt>
      <trkpt lat="45.75446" lon="5.66158">
        <ele>240.47</ele>
        <time>2012-06-06T12:01:41Z</time>
      </trkpt>
      <trkpt lat="45.75489" lon="5.66158">
        <ele>240.95</ele>
        <time>2012-06-06T12:01:53Z</time>
      </trkpt>
      <trkpt lat="45.75547" lon="5.6616">
        <ele>241.43</ele>
        <time>2012-06-06T12:02:09Z</time>
      </trkpt>
      <trkpt lat="45.75593" lon="5.66152">
        <ele>241.43</ele>
        <time>2012-06-06T12:02:22Z</time>
      </trkpt>
      <trkpt lat="45.75654" lon="5.66138">
        <ele>240.47</ele>
        <time>2012-06-06T12:02:36Z</time>
      </trkpt>
      <trkpt lat="45.7568" lon="5.66133">
        <ele>240.47</ele>
        <time>2012-06-06T12:02:41Z</time>
      </trkpt>
      <trkpt lat="45.75744" lon="5.66119">
        <ele>239.99</ele>
        <time>2012-06-06T12:02:53Z</time>
      </trkpt>
      <trkpt lat="45.7578" lon="5.66126">
        <ele>239.51</ele>
        <time>2012-06-06T12:03:00Z</time>
      </trkpt>
      <trkpt lat="45.75795" lon="5.66121">
        <ele>239.51</ele>
        <time>2012-06-06T12:03:03Z</time>
      </trkpt>
      <trkpt lat="45.75808" lon="5.66108">
        <ele>239.51</ele>
        <time>2012-06-06T12:03:06Z</time>
      </trkpt>
      <trkpt lat="45.75825" lon="5.66081">
        <ele>239.02</ele>
        <time>2012-06-06T12:03:11Z</time>
      </trkpt>
      <trkpt lat="45.7587" lon="5.66036">
        <ele>239.02</ele>
        <time>2012-06-06T12:03:21Z</time>
      </trkpt>
      <trkpt lat="45.75892" lon="5.66013">
        <ele>239.02</ele>
        <time>2012-06-06T12:03:26Z</time>
      </trkpt>
      <trkpt lat="45.75936" lon="5.65998">
        <ele>238.54</ele>
        <time>2012-06-06T12:03:34Z</time>
      </trkpt>
      <trkpt lat="45.75975" lon="5.65991">
        <ele>237.58</ele>
        <time>2012-06-06T12:03:43Z</time>
      </trkpt>
      <trkpt lat="45.75979" lon="5.65976">
        <ele>237.58</ele>
        <time>2012-06-06T12:03:46Z</time>
      </trkpt>
      <trkpt lat="45.75978" lon="5.65942">
        <ele>237.58</ele>
        <time>2012-06-06T12:03:50Z</time>
      </trkpt>
      <trkpt lat="45.76002" lon="5.65814">
        <ele>236.14</ele>
        <time>2012-06-06T12:04:04Z</time>
      </trkpt>
      <trkpt lat="45.76032" lon="5.6576">
        <ele>236.14</ele>
        <time>2012-06-06T12:04:12Z</time>
      </trkpt>
      <trkpt lat="45.76049" lon="5.65737">
        <ele>236.62</ele>
        <time>2012-06-06T12:04:19Z</time>
      </trkpt>
      <trkpt lat="45.76061" lon="5.65685">
        <ele>237.58</ele>
        <time>2012-06-06T12:04:29Z</time>
      </trkpt>
      <trkpt lat="45.76069" lon="5.65635">
        <ele>236.62</ele>
        <time>2012-06-06T12:04:42Z</time>
      </trkpt>
      <trkpt lat="45.76076" lon="5.65588">
        <ele>236.62</ele>
        <time>2012-06-06T12:04:57Z</time>
      </trkpt>
      <trkpt lat="45.76092" lon="5.65497">
        <ele>237.1</ele>
        <time>2012-06-06T12:05:12Z</time>
      </trkpt>
      <trkpt lat="45.76102" lon="5.65482">
        <ele>237.1</ele>
        <time>2012-06-06T12:05:15Z</time>
      </trkpt>
      <trkpt lat="45.76113" lon="5.6547">
        <ele>237.58</ele>
        <time>2012-06-06T12:05:18Z</time>
      </trkpt>
      <trkpt lat="45.7617" lon="5.65441">
        <ele>239.02</ele>
        <time>2012-06-06T12:05:33Z</time>
      </trkpt>
      <trkpt lat="45.76218" lon="5.65424">
        <ele>241.91</ele>
        <time>2012-06-06T12:05:48Z</time>
      </trkpt>
      <trkpt lat="45.76254" lon="5.6541">
        <ele>244.31</ele>
        <time>2012-06-06T12:06:01Z</time>
      </trkpt>
      <trkpt lat="45.76283" lon="5.65397">
        <ele>246.23</ele>
        <time>2012-06-06T12:06:14Z</time>
      </trkpt>
      <trkpt lat="45.76327" lon="5.65402">
        <ele>246.23</ele>
        <time>2012-06-06T12:06:29Z</time>
      </trkpt>
      <trkpt lat="45.76372" lon="5.65383">
        <ele>247.68</ele>
        <time>2012-06-06T12:06:41Z</time>
      </trkpt>
      <trkpt lat="45.76389" lon="5.6538">
        <ele>248.16</ele>
        <time>2012-06-06T12:06:45Z</time>
      </trkpt>
      <trkpt lat="45.76434" lon="5.65362">
        <ele>248.64</ele>
        <time>2012-06-06T12:06:56Z</time>
      </trkpt>
      <trkpt lat="45.76484" lon="5.65369">
        <ele>248.64</ele>
        <time>2012-06-06T12:07:08Z</time>
      </trkpt>
      <trkpt lat="45.76525" lon="5.65365">
        <ele>248.64</ele>
        <time>2012-06-06T12:07:19Z</time>
      </trkpt>
      <trkpt lat="45.76562" lon="5.6536">
        <ele>250.08</ele>
        <time>2012-06-06T12:07:36Z</time>
      </trkpt>
      <trkpt lat="45.76614" lon="5.65341">
        <ele>253.93</ele>
        <time>2012-06-06T12:08:12Z</time>
      </trkpt>
      <trkpt lat="45.76613" lon="5.6534">
        <ele>253.93</ele>
        <time>2012-06-06T12:09:32Z</time>
      </trkpt>
      <trkpt lat="45.76604" lon="5.65318">
        <ele>252</ele>
        <time>2012-06-06T12:09:38Z</time>
      </trkpt>
      <trkpt lat="45.76614" lon="5.65296">
        <ele>251.52</ele>
        <time>2012-06-06T12:09:46Z</time>
      </trkpt>
      <trkpt lat="45.76651" lon="5.65276">
        <ele>252</ele>
        <time>2012-06-06T12:09:59Z</time>
      </trkpt>
      <trkpt lat="45.76696" lon="5.65256">
        <ele>251.52</ele>
        <time>2012-06-06T12:16:14Z</time>
      </trkpt>
      <trkpt lat="45.76745" lon="5.6523">
        <ele>252.48</ele>
        <time>2012-06-06T12:16:28Z</time>
      </trkpt>
      <trkpt lat="45.76782" lon="5.65214">
        <ele>252</ele>
        <time>2012-06-06T12:16:38Z</time>
      </trkpt>
      <trkpt lat="45.76824" lon="5.65196">
        <ele>252.48</ele>
        <time>2012-06-06T12:16:49Z</time>
      </trkpt>
      <trkpt lat="45.76868" lon="5.65173">
        <ele>253.44</ele>
        <time>2012-06-06T12:17:01Z</time>
      </trkpt>
      <trkpt lat="45.76903" lon="5.65156">
        <ele>253.44</ele>
        <time>2012-06-06T12:17:12Z</time>
      </trkpt>
      <trkpt lat="45.76945" lon="5.65137">
        <ele>253.44</ele>
        <time>2012-06-06T12:17:23Z</time>
      </trkpt>
      <trkpt lat="45.76981" lon="5.65121">
        <ele>253.44</ele>
        <time>2012-06-06T12:17:34Z</time>
      </trkpt>
      <trkpt lat="45.77055" lon="5.65079">
        <ele>253.44</ele>
        <time>2012-06-06T12:18:16Z</time>
      </trkpt>
      <trkpt lat="45.77097" lon="5.65054">
        <ele>254.41</ele>
        <time>2012-06-06T12:18:27Z</time>
      </trkpt>
      <trkpt lat="45.7715" lon="5.65029">
        <ele>254.41</ele>
        <time>2012-06-06T12:18:36Z</time>
      </trkpt>
      <trkpt lat="45.7723" lon="5.64996">
        <ele>253.93</ele>
        <time>2012-06-06T12:18:50Z</time>
      </trkpt>
      <trkpt lat="45.77277" lon="5.64979">
        <ele>253.93</ele>
        <time>2012-06-06T12:18:59Z</time>
      </trkpt>
      <trkpt lat="45.77302" lon="5.64968">
        <ele>254.89</ele>
        <time>2012-06-06T12:19:05Z</time>
      </trkpt>
      <trkpt lat="45.77329" lon="5.64944">
        <ele>255.37</ele>
        <time>2012-06-06T12:19:16Z</time>
      </trkpt>
      <trkpt lat="45.77327" lon="5.64919">
        <ele>254.41</ele>
        <time>2012-06-06T12:19:26Z</time>
      </trkpt>
      <trkpt lat="45.77327" lon="5.64907">
        <ele>254.41</ele>
        <time>2012-06-06T12:19:30Z</time>
      </trkpt>
      <trkpt lat="45.7733" lon="5.649">
        <ele>254.41</ele>
        <time>2012-06-06T12:19:33Z</time>
      </trkpt>
      <trkpt lat="45.77336" lon="5.64898">
        <ele>254.41</ele>
        <time>2012-06-06T12:19:36Z</time>
      </trkpt>
      <trkpt lat="45.77356" lon="5.64934">
        <ele>254.89</ele>
        <time>2012-06-06T12:19:48Z</time>
      </trkpt>
      <trkpt lat="45.77387" lon="5.64962">
        <ele>253.44</ele>
        <time>2012-06-06T12:19:58Z</time>
      </trkpt>
      <trkpt lat="45.77413" lon="5.64966">
        <ele>253.44</ele>
        <time>2012-06-06T12:20:06Z</time>
      </trkpt>
      <trkpt lat="45.77454" lon="5.64941">
        <ele>254.41</ele>
        <time>2012-06-06T12:20:16Z</time>
      </trkpt>
      <trkpt lat="45.77498" lon="5.64912">
        <ele>254.89</ele>
        <time>2012-06-06T12:20:28Z</time>
      </trkpt>
      <trkpt lat="45.77526" lon="5.64886">
        <ele>254.41</ele>
        <time>2012-06-06T12:20:40Z</time>
      </trkpt>
      <trkpt lat="45.77551" lon="5.64862">
        <ele>255.37</ele>
        <time>2012-06-06T12:20:51Z</time>
      </trkpt>
      <trkpt lat="45.77568" lon="5.64854">
        <ele>255.85</ele>
        <time>2012-06-06T12:20:59Z</time>
      </trkpt>
      <trkpt lat="45.77584" lon="5.64846">
        <ele>258.25</ele>
        <time>2012-06-06T12:21:13Z</time>
      </trkpt>
      <trkpt lat="45.77605" lon="5.6484">
        <ele>262.58</ele>
        <time>2012-06-06T12:21:38Z</time>
      </trkpt>
      <trkpt lat="45.77623" lon="5.64836">
        <ele>264.98</ele>
        <time>2012-06-06T12:21:53Z</time>
      </trkpt>
      <trkpt lat="45.77633" lon="5.64832">
        <ele>265.94</ele>
        <time>2012-06-06T12:21:59Z</time>
      </trkpt>
      <trkpt lat="45.77654" lon="5.6483">
        <ele>265.94</ele>
        <time>2012-06-06T12:22:08Z</time>
      </trkpt>
      <trkpt lat="45.7768" lon="5.64843">
        <ele>267.86</ele>
        <time>2012-06-06T12:22:26Z</time>
      </trkpt>
      <trkpt lat="45.777" lon="5.64847">
        <ele>269.31</ele>
        <time>2012-06-06T12:22:40Z</time>
      </trkpt>
      <trkpt lat="45.77726" lon="5.64853">
        <ele>272.67</ele>
        <time>2012-06-06T12:23:00Z</time>
      </trkpt>
      <trkpt lat="45.77748" lon="5.64876">
        <ele>276.04</ele>
        <time>2012-06-06T12:23:50Z</time>
      </trkpt>
      <trkpt lat="45.77751" lon="5.6489">
        <ele>276.52</ele>
        <time>2012-06-06T12:24:24Z</time>
      </trkpt>
      <trkpt lat="45.77736" lon="5.64921">
        <ele>280.84</ele>
        <time>2012-06-06T12:24:49Z</time>
      </trkpt>
      <trkpt lat="45.77718" lon="5.64954">
        <ele>283.73</ele>
        <time>2012-06-06T12:25:42Z</time>
      </trkpt>
      <trkpt lat="45.77713" lon="5.64967">
        <ele>285.17</ele>
        <time>2012-06-06T12:26:30Z</time>
      </trkpt>
      <trkpt lat="45.77716" lon="5.65005">
        <ele>289.97</ele>
        <time>2012-06-06T12:27:08Z</time>
      </trkpt>
      <trkpt lat="45.77724" lon="5.65025">
        <ele>292.38</ele>
        <time>2012-06-06T12:27:25Z</time>
      </trkpt>
      <trkpt lat="45.77735" lon="5.65042">
        <ele>293.34</ele>
        <time>2012-06-06T12:27:37Z</time>
      </trkpt>
      <trkpt lat="45.77757" lon="5.65071">
        <ele>297.18</ele>
        <time>2012-06-06T12:28:26Z</time>
      </trkpt>
      <trkpt lat="45.7776" lon="5.65085">
        <ele>297.18</ele>
        <time>2012-06-06T12:28:48Z</time>
      </trkpt>
      <trkpt lat="45.77766" lon="5.651">
        <ele>297.67</ele>
        <time>2012-06-06T12:30:13Z</time>
      </trkpt>
      <trkpt lat="45.77781" lon="5.65092">
        <ele>298.15</ele>
        <time>2012-06-06T12:30:22Z</time>
      </trkpt>
      <trkpt lat="45.77812" lon="5.65085">
        <ele>294.78</ele>
        <time>2012-06-06T12:30:31Z</time>
      </trkpt>
      <trkpt lat="45.77855" lon="5.65063">
        <ele>292.86</ele>
        <time>2012-06-06T12:30:45Z</time>
      </trkpt>
      <trkpt lat="45.77869" lon="5.65049">
        <ele>296.7</ele>
        <time>2012-06-06T12:31:03Z</time>
      </trkpt>
      <trkpt lat="45.77883" lon="5.65043">
        <ele>297.18</ele>
        <time>2012-06-06T12:31:20Z</time>
      </trkpt>
      <trkpt lat="45.77895" lon="5.65044">
        <ele>298.63</ele>
        <time>2012-06-06T12:31:31Z</time>
      </trkpt>
      <trkpt lat="45.77922" lon="5.65029">
        <ele>301.51</ele>
        <time>2012-06-06T12:31:51Z</time>
      </trkpt>
      <trkpt lat="45.77941" lon="5.65005">
        <ele>299.59</ele>
        <time>2012-06-06T12:32:02Z</time>
      </trkpt>
      <trkpt lat="45.7796" lon="5.64991">
        <ele>298.63</ele>
        <time>2012-06-06T12:32:10Z</time>
      </trkpt>
      <trkpt lat="45.7797" lon="5.64986">
        <ele>299.11</ele>
        <time>2012-06-06T12:32:16Z</time>
      </trkpt>
      <trkpt lat="45.77989" lon="5.64979">
        <ele>299.11</ele>
        <time>2012-06-06T12:32:29Z</time>
      </trkpt>
      <trkpt lat="45.78005" lon="5.64983">
        <ele>301.03</ele>
        <time>2012-06-06T12:32:42Z</time>
      </trkpt>
      <trkpt lat="45.78023" lon="5.64992">
        <ele>306.32</ele>
        <time>2012-06-06T12:32:57Z</time>
      </trkpt>
      <trkpt lat="45.78031" lon="5.64999">
        <ele>307.76</ele>
        <time>2012-06-06T12:33:04Z</time>
      </trkpt>
      <trkpt lat="45.78073" lon="5.64989">
        <ele>315.45</ele>
        <time>2012-06-06T12:35:32Z</time>
      </trkpt>
      <trkpt lat="45.78074" lon="5.64989">
        <ele>315.45</ele>
        <time>2012-06-06T12:35:33Z</time>
      </trkpt>
      <trkpt lat="45.7809" lon="5.64987">
        <ele>317.37</ele>
        <time>2012-06-06T12:35:48Z</time>
      </trkpt>
      <trkpt lat="45.78107" lon="5.64994">
        <ele>319.78</ele>
        <time>2012-06-06T12:36:21Z</time>
      </trkpt>
      <trkpt lat="45.78123" lon="5.65008">
        <ele>324.1</ele>
        <time>2012-06-06T12:37:13Z</time>
      </trkpt>
      <trkpt lat="45.78138" lon="5.6503">
        <ele>326.02</ele>
        <time>2012-06-06T12:37:38Z</time>
      </trkpt>
      <trkpt lat="45.78144" lon="5.65044">
        <ele>327.95</ele>
        <time>2012-06-06T12:37:52Z</time>
      </trkpt>
      <trkpt lat="45.78152" lon="5.65056">
        <ele>329.39</ele>
        <time>2012-06-06T12:38:17Z</time>
      </trkpt>
      <trkpt lat="45.78167" lon="5.65073">
        <ele>332.27</ele>
        <time>2012-06-06T12:39:13Z</time>
      </trkpt>
      <trkpt lat="45.78193" lon="5.65093">
        <ele>334.68</ele>
        <time>2012-06-06T12:39:34Z</time>
      </trkpt>
      <trkpt lat="45.78227" lon="5.65112">
        <ele>336.6</ele>
        <time>2012-06-06T12:39:56Z</time>
      </trkpt>
      <trkpt lat="45.78234" lon="5.65118">
        <ele>337.08</ele>
        <time>2012-06-06T12:40:08Z</time>
      </trkpt>
      <trkpt lat="45.78244" lon="5.65133">
        <ele>338.04</ele>
        <time>2012-06-06T12:40:55Z</time>
      </trkpt>
      <trkpt lat="45.78244" lon="5.65133">
        <ele>337.56</ele>
        <time>2012-06-06T12:41:27Z</time>
      </trkpt>
      <trkpt lat="45.78244" lon="5.65133">
        <ele>337.56</ele>
        <time>2012-06-06T12:41:32Z</time>
      </trkpt>
      <trkpt lat="45.78246" lon="5.65141">
        <ele>338.04</ele>
        <time>2012-06-06T12:41:37Z</time>
      </trkpt>
      <trkpt lat="45.78258" lon="5.65142">
        <ele>336.6</ele>
        <time>2012-06-06T12:41:43Z</time>
      </trkpt>
      <trkpt lat="45.78308" lon="5.65131">
        <ele>333.23</ele>
        <time>2012-06-06T12:41:54Z</time>
      </trkpt>
      <trkpt lat="45.7836" lon="5.65109">
        <ele>331.79</ele>
        <time>2012-06-06T12:42:07Z</time>
      </trkpt>
      <trkpt lat="45.78416" lon="5.65096">
        <ele>332.27</ele>
        <time>2012-06-06T12:42:20Z</time>
      </trkpt>
      <trkpt lat="45.78462" lon="5.65088">
        <ele>331.31</ele>
        <time>2012-06-06T12:42:28Z</time>
      </trkpt>
      <trkpt lat="45.78504" lon="5.65071">
        <ele>329.87</ele>
        <time>2012-06-06T12:42:35Z</time>
      </trkpt>
      <trkpt lat="45.78544" lon="5.65058">
        <ele>328.91</ele>
        <time>2012-06-06T12:42:45Z</time>
      </trkpt>
      <trkpt lat="45.78559" lon="5.65053">
        <ele>328.91</ele>
        <time>2012-06-06T12:42:48Z</time>
      </trkpt>
      <trkpt lat="45.78568" lon="5.65045">
        <ele>327.95</ele>
        <time>2012-06-06T12:42:50Z</time>
      </trkpt>
      <trkpt lat="45.78578" lon="5.65034">
        <ele>327.47</ele>
        <time>2012-06-06T12:42:52Z</time>
      </trkpt>
      <trkpt lat="45.78588" lon="5.65021">
        <ele>326.99</ele>
        <time>2012-06-06T12:42:54Z</time>
      </trkpt>
      <trkpt lat="45.78598" lon="5.6501">
        <ele>326.02</ele>
        <time>2012-06-06T12:42:56Z</time>
      </trkpt>
      <trkpt lat="45.78609" lon="5.65003">
        <ele>325.54</ele>
        <time>2012-06-06T12:42:58Z</time>
      </trkpt>
      <trkpt lat="45.78626" lon="5.64998">
        <ele>324.58</ele>
        <time>2012-06-06T12:43:01Z</time>
      </trkpt>
      <trkpt lat="45.78637" lon="5.64996">
        <ele>323.14</ele>
        <time>2012-06-06T12:43:03Z</time>
      </trkpt>
      <trkpt lat="45.78647" lon="5.64999">
        <ele>323.14</ele>
        <time>2012-06-06T12:43:05Z</time>
      </trkpt>
      <trkpt lat="45.78664" lon="5.65011">
        <ele>322.18</ele>
        <time>2012-06-06T12:43:09Z</time>
      </trkpt>
      <trkpt lat="45.78688" lon="5.65021">
        <ele>323.14</ele>
        <time>2012-06-06T12:43:15Z</time>
      </trkpt>
      <trkpt lat="45.78702" lon="5.6501">
        <ele>323.14</ele>
        <time>2012-06-06T12:43:18Z</time>
      </trkpt>
      <trkpt lat="45.78713" lon="5.64998">
        <ele>323.62</ele>
        <time>2012-06-06T12:43:21Z</time>
      </trkpt>
      <trkpt lat="45.7874" lon="5.64931">
        <ele>325.54</ele>
        <time>2012-06-06T12:43:36Z</time>
      </trkpt>
      <trkpt lat="45.7877" lon="5.64871">
        <ele>326.99</ele>
        <time>2012-06-06T12:43:51Z</time>
      </trkpt>
      <trkpt lat="45.78796" lon="5.64821">
        <ele>326.99</ele>
        <time>2012-06-06T12:44:03Z</time>
      </trkpt>
      <trkpt lat="45.78819" lon="5.64778">
        <ele>326.5</ele>
        <time>2012-06-06T12:44:14Z</time>
      </trkpt>
      <trkpt lat="45.78835" lon="5.6474">
        <ele>327.95</ele>
        <time>2012-06-06T12:44:26Z</time>
      </trkpt>
      <trkpt lat="45.78856" lon="5.647">
        <ele>329.39</ele>
        <time>2012-06-06T12:44:40Z</time>
      </trkpt>
      <trkpt lat="45.78884" lon="5.64645">
        <ele>331.31</ele>
        <time>2012-06-06T12:44:59Z</time>
      </trkpt>
      <trkpt lat="45.7891" lon="5.64598">
        <ele>333.71</ele>
        <time>2012-06-06T12:45:18Z</time>
      </trkpt>
      <trkpt lat="45.7894" lon="5.64557">
        <ele>335.64</ele>
        <time>2012-06-06T12:45:37Z</time>
      </trkpt>
      <trkpt lat="45.78972" lon="5.64518">
        <ele>337.56</ele>
        <time>2012-06-06T12:45:58Z</time>
      </trkpt>
      <trkpt lat="45.79008" lon="5.64486">
        <ele>341.41</ele>
        <time>2012-06-06T12:46:18Z</time>
      </trkpt>
      <trkpt lat="45.79044" lon="5.64458">
        <ele>343.33</ele>
        <time>2012-06-06T12:46:36Z</time>
      </trkpt>
      <trkpt lat="45.79094" lon="5.6442">
        <ele>343.33</ele>
        <time>2012-06-06T12:46:53Z</time>
      </trkpt>
      <trkpt lat="45.79146" lon="5.64387">
        <ele>344.29</ele>
        <time>2012-06-06T12:47:10Z</time>
      </trkpt>
      <trkpt lat="45.79192" lon="5.64411">
        <ele>343.81</ele>
        <time>2012-06-06T12:47:23Z</time>
      </trkpt>
      <trkpt lat="45.79247" lon="5.64424">
        <ele>345.25</ele>
        <time>2012-06-06T12:47:38Z</time>
      </trkpt>
      <trkpt lat="45.79302" lon="5.6443">
        <ele>347.17</ele>
        <time>2012-06-06T12:47:54Z</time>
      </trkpt>
      <trkpt lat="45.79337" lon="5.64423">
        <ele>348.62</ele>
        <time>2012-06-06T12:48:08Z</time>
      </trkpt>
      <trkpt lat="45.79357" lon="5.64395">
        <ele>349.1</ele>
        <time>2012-06-06T12:48:17Z</time>
      </trkpt>
      <trkpt lat="45.79397" lon="5.64379">
        <ele>349.58</ele>
        <time>2012-06-06T12:48:30Z</time>
      </trkpt>
      <trkpt lat="45.79411" lon="5.64366">
        <ele>350.06</ele>
        <time>2012-06-06T12:48:34Z</time>
      </trkpt>
      <trkpt lat="45.79443" lon="5.64332">
        <ele>351.98</ele>
        <time>2012-06-06T12:48:48Z</time>
      </trkpt>
      <trkpt lat="45.79485" lon="5.64339">
        <ele>352.46</ele>
        <time>2012-06-06T12:49:00Z</time>
      </trkpt>
      <trkpt lat="45.79531" lon="5.6435">
        <ele>352.94</ele>
        <time>2012-06-06T12:49:12Z</time>
      </trkpt>
      <trkpt lat="45.79586" lon="5.64347">
        <ele>354.38</ele>
        <time>2012-06-06T12:49:28Z</time>
      </trkpt>
      <trkpt lat="45.79628" lon="5.64333">
        <ele>355.83</ele>
        <time>2012-06-06T12:49:42Z</time>
      </trkpt>
      <trkpt lat="45.79704" lon="5.64342">
        <ele>357.27</ele>
        <time>2012-06-06T12:50:04Z</time>
      </trkpt>
      <trkpt lat="45.79756" lon="5.64354">
        <ele>359.67</ele>
        <time>2012-06-06T12:50:23Z</time>
      </trkpt>
      <trkpt lat="45.79793" lon="5.64349">
        <ele>362.55</ele>
        <time>2012-06-06T12:50:40Z</time>
      </trkpt>
      <trkpt lat="45.7982" lon="5.64333">
        <ele>364</ele>
        <time>2012-06-06T12:50:54Z</time>
      </trkpt>
      <trkpt lat="45.79845" lon="5.64326">
        <ele>364.48</ele>
        <time>2012-06-06T12:51:08Z</time>
      </trkpt>
      <trkpt lat="45.79878" lon="5.6432">
        <ele>364</ele>
        <time>2012-06-06T12:54:04Z</time>
      </trkpt>
      <trkpt lat="45.79911" lon="5.64317">
        <ele>362.07</ele>
        <time>2012-06-06T12:54:08Z</time>
      </trkpt>
      <trkpt lat="45.79962" lon="5.64306">
        <ele>358.23</ele>
        <time>2012-06-06T12:54:13Z</time>
      </trkpt>
      <trkpt lat="45.80042" lon="5.64285">
        <ele>355.83</ele>
        <time>2012-06-06T12:54:22Z</time>
      </trkpt>
      <trkpt lat="45.80098" lon="5.64262">
        <ele>353.9</ele>
        <time>2012-06-06T12:54:35Z</time>
      </trkpt>
      <trkpt lat="45.80144" lon="5.6425">
        <ele>354.38</ele>
        <time>2012-06-06T12:54:45Z</time>
      </trkpt>
      <trkpt lat="45.80154" lon="5.64255">
        <ele>353.9</ele>
        <time>2012-06-06T12:54:47Z</time>
      </trkpt>
      <trkpt lat="45.8016" lon="5.64267">
        <ele>353.9</ele>
        <time>2012-06-06T12:54:49Z</time>
      </trkpt>
      <trkpt lat="45.80165" lon="5.64285">
        <ele>353.42</ele>
        <time>2012-06-06T12:54:52Z</time>
      </trkpt>
      <trkpt lat="45.80171" lon="5.64292">
        <ele>351.98</ele>
        <time>2012-06-06T12:54:54Z</time>
      </trkpt>
      <trkpt lat="45.80179" lon="5.64291">
        <ele>352.46</ele>
        <time>2012-06-06T12:54:56Z</time>
      </trkpt>
      <trkpt lat="45.80187" lon="5.64284">
        <ele>352.46</ele>
        <time>2012-06-06T12:54:58Z</time>
      </trkpt>
      <trkpt lat="45.80203" lon="5.64266">
        <ele>352.46</ele>
        <time>2012-06-06T12:55:02Z</time>
      </trkpt>
      <trkpt lat="45.80213" lon="5.64258">
        <ele>351.98</ele>
        <time>2012-06-06T12:55:04Z</time>
      </trkpt>
      <trkpt lat="45.80225" lon="5.64256">
        <ele>351.98</ele>
        <time>2012-06-06T12:55:06Z</time>
      </trkpt>
      <trkpt lat="45.80239" lon="5.64258">
        <ele>350.54</ele>
        <time>2012-06-06T12:55:08Z</time>
      </trkpt>
      <trkpt lat="45.80254" lon="5.64257">
        <ele>349.1</ele>
        <time>2012-06-06T12:55:10Z</time>
      </trkpt>
      <trkpt lat="45.80283" lon="5.64254">
        <ele>346.21</ele>
        <time>2012-06-06T12:55:14Z</time>
      </trkpt>
      <trkpt lat="45.80313" lon="5.64248">
        <ele>345.25</ele>
        <time>2012-06-06T12:55:20Z</time>
      </trkpt>
      <trkpt lat="45.80337" lon="5.64243">
        <ele>342.37</ele>
        <time>2012-06-06T12:55:25Z</time>
      </trkpt>
      <trkpt lat="45.80353" lon="5.64249">
        <ele>341.89</ele>
        <time>2012-06-06T12:55:28Z</time>
      </trkpt>
      <trkpt lat="45.80368" lon="5.64252">
        <ele>342.37</ele>
        <time>2012-06-06T12:55:31Z</time>
      </trkpt>
      <trkpt lat="45.80382" lon="5.64259">
        <ele>341.89</ele>
        <time>2012-06-06T12:55:34Z</time>
      </trkpt>
      <trkpt lat="45.80404" lon="5.6427">
        <ele>339.96</ele>
        <time>2012-06-06T12:55:40Z</time>
      </trkpt>
      <trkpt lat="45.80427" lon="5.64282">
        <ele>337.08</ele>
        <time>2012-06-06T12:55:46Z</time>
      </trkpt>
      <trkpt lat="45.80452" lon="5.64304">
        <ele>333.71</ele>
        <time>2012-06-06T12:55:53Z</time>
      </trkpt>
      <trkpt lat="45.8047" lon="5.64315">
        <ele>332.75</ele>
        <time>2012-06-06T12:56:02Z</time>
      </trkpt>
      <trkpt lat="45.80485" lon="5.64321">
        <ele>332.75</ele>
        <time>2012-06-06T12:56:29Z</time>
      </trkpt>
      <trkpt lat="45.80495" lon="5.6433">
        <ele>333.71</ele>
        <time>2012-06-06T12:56:41Z</time>
      </trkpt>
      <trkpt lat="45.8051" lon="5.64336">
        <ele>334.2</ele>
        <time>2012-06-06T12:56:53Z</time>
      </trkpt>
      <trkpt lat="45.80537" lon="5.64326">
        <ele>334.68</ele>
        <time>2012-06-06T12:57:29Z</time>
      </trkpt>
      <trkpt lat="45.80577" lon="5.64309">
        <ele>335.64</ele>
        <time>2012-06-06T12:57:43Z</time>
      </trkpt>
      <trkpt lat="45.80603" lon="5.64318">
        <ele>337.08</ele>
        <time>2012-06-06T12:57:54Z</time>
      </trkpt>
      <trkpt lat="45.80637" lon="5.64315">
        <ele>336.12</ele>
        <time>2012-06-06T12:58:06Z</time>
      </trkpt>
      <trkpt lat="45.80657" lon="5.6432">
        <ele>337.56</ele>
        <time>2012-06-06T12:58:17Z</time>
      </trkpt>
      <trkpt lat="45.80672" lon="5.64331">
        <ele>335.16</ele>
        <time>2012-06-06T13:08:11Z</time>
      </trkpt>
      <trkpt lat="45.80678" lon="5.64342">
        <ele>335.64</ele>
        <time>2012-06-06T13:08:18Z</time>
      </trkpt>
      <trkpt lat="45.80682" lon="5.64368">
        <ele>338.04</ele>
        <time>2012-06-06T13:08:29Z</time>
      </trkpt>
      <trkpt lat="45.80671" lon="5.644">
        <ele>339.96</ele>
        <time>2012-06-06T13:08:44Z</time>
      </trkpt>
      <trkpt lat="45.80661" lon="5.64418">
        <ele>338.04</ele>
        <time>2012-06-06T13:08:49Z</time>
      </trkpt>
      <trkpt lat="45.80661" lon="5.64442">
        <ele>338.04</ele>
        <time>2012-06-06T13:08:57Z</time>
      </trkpt>
      <trkpt lat="45.80663" lon="5.64464">
        <ele>339</ele>
        <time>2012-06-06T13:09:05Z</time>
      </trkpt>
      <trkpt lat="45.80661" lon="5.64489">
        <ele>341.41</ele>
        <time>2012-06-06T13:09:17Z</time>
      </trkpt>
      <trkpt lat="45.80652" lon="5.64511">
        <ele>343.33</ele>
        <time>2012-06-06T13:09:53Z</time>
      </trkpt>
      <trkpt lat="45.80639" lon="5.64533">
        <ele>344.29</ele>
        <time>2012-06-06T13:10:08Z</time>
      </trkpt>
      <trkpt lat="45.80627" lon="5.64558">
        <ele>346.69</ele>
        <time>2012-06-06T13:10:24Z</time>
      </trkpt>
      <trkpt lat="45.80616" lon="5.6459">
        <ele>350.06</ele>
        <time>2012-06-06T13:10:39Z</time>
      </trkpt>
      <trkpt lat="45.80622" lon="5.64626">
        <ele>351.98</ele>
        <time>2012-06-06T13:11:02Z</time>
      </trkpt>
      <trkpt lat="45.80626" lon="5.64654">
        <ele>352.46</ele>
        <time>2012-06-06T13:11:15Z</time>
      </trkpt>
      <trkpt lat="45.80635" lon="5.64683">
        <ele>352.94</ele>
        <time>2012-06-06T13:11:25Z</time>
      </trkpt>
      <trkpt lat="45.80642" lon="5.64703">
        <ele>353.42</ele>
        <time>2012-06-06T13:11:34Z</time>
      </trkpt>
      <trkpt lat="45.80639" lon="5.64716">
        <ele>353.42</ele>
        <time>2012-06-06T13:11:40Z</time>
      </trkpt>
      <trkpt lat="45.80634" lon="5.64745">
        <ele>352.94</ele>
        <time>2012-06-06T13:11:49Z</time>
      </trkpt>
      <trkpt lat="45.80629" lon="5.64765">
        <ele>354.86</ele>
        <time>2012-06-06T13:11:57Z</time>
      </trkpt>
      <trkpt lat="45.80627" lon="5.6478">
        <ele>355.83</ele>
        <time>2012-06-06T13:12:09Z</time>
      </trkpt>
      <trkpt lat="45.80627" lon="5.6478">
        <ele>355.34</ele>
        <time>2012-06-06T13:12:12Z</time>
      </trkpt>
      <trkpt lat="45.80615" lon="5.6479">
        <ele>357.27</ele>
        <time>2012-06-06T13:12:21Z</time>
      </trkpt>
      <trkpt lat="45.80597" lon="5.64815">
        <ele>358.71</ele>
        <time>2012-06-06T13:12:34Z</time>
      </trkpt>
      <trkpt lat="45.80584" lon="5.64834">
        <ele>360.15</ele>
        <time>2012-06-06T13:12:43Z</time>
      </trkpt>
      <trkpt lat="45.80571" lon="5.64852">
        <ele>361.59</ele>
        <time>2012-06-06T13:12:53Z</time>
      </trkpt>
      <trkpt lat="45.80562" lon="5.64861">
        <ele>362.55</ele>
        <time>2012-06-06T13:12:58Z</time>
      </trkpt>
      <trkpt lat="45.80538" lon="5.64878">
        <ele>364</ele>
        <time>2012-06-06T13:13:11Z</time>
      </trkpt>
      <trkpt lat="45.80525" lon="5.64882">
        <ele>364.48</ele>
        <time>2012-06-06T13:13:20Z</time>
      </trkpt>
      <trkpt lat="45.80504" lon="5.649">
        <ele>366.4</ele>
        <time>2012-06-06T13:13:33Z</time>
      </trkpt>
      <trkpt lat="45.80499" lon="5.64912">
        <ele>367.36</ele>
        <time>2012-06-06T13:13:39Z</time>
      </trkpt>
      <trkpt lat="45.80498" lon="5.64943">
        <ele>368.8</ele>
        <time>2012-06-06T13:13:51Z</time>
      </trkpt>
      <trkpt lat="45.8048" lon="5.6499">
        <ele>368.8</ele>
        <time>2012-06-06T13:14:05Z</time>
      </trkpt>
      <trkpt lat="45.80471" lon="5.6502">
        <ele>369.76</ele>
        <time>2012-06-06T13:14:19Z</time>
      </trkpt>
      <trkpt lat="45.80464" lon="5.65061">
        <ele>370.73</ele>
        <time>2012-06-06T13:14:31Z</time>
      </trkpt>
      <trkpt lat="45.80449" lon="5.65114">
        <ele>372.65</ele>
        <time>2012-06-06T13:14:45Z</time>
      </trkpt>
      <trkpt lat="45.80434" lon="5.65159">
        <ele>373.13</ele>
        <time>2012-06-06T13:14:59Z</time>
      </trkpt>
      <trkpt lat="45.80413" lon="5.652">
        <ele>373.13</ele>
        <time>2012-06-06T13:15:13Z</time>
      </trkpt>
      <trkpt lat="45.80392" lon="5.65236">
        <ele>374.57</ele>
        <time>2012-06-06T13:15:24Z</time>
      </trkpt>
      <trkpt lat="45.80377" lon="5.6526">
        <ele>374.09</ele>
        <time>2012-06-06T13:15:30Z</time>
      </trkpt>
      <trkpt lat="45.80337" lon="5.65322">
        <ele>373.61</ele>
        <time>2012-06-06T13:15:44Z</time>
      </trkpt>
      <trkpt lat="45.80304" lon="5.65398">
        <ele>374.57</ele>
        <time>2012-06-06T13:16:01Z</time>
      </trkpt>
      <trkpt lat="45.80297" lon="5.65417">
        <ele>373.61</ele>
        <time>2012-06-06T13:16:04Z</time>
      </trkpt>
      <trkpt lat="45.80282" lon="5.65451">
        <ele>372.65</ele>
        <time>2012-06-06T13:16:09Z</time>
      </trkpt>
      <trkpt lat="45.8028" lon="5.65465">
        <ele>372.17</ele>
        <time>2012-06-06T13:16:11Z</time>
      </trkpt>
      <trkpt lat="45.80278" lon="5.65482">
        <ele>371.21</ele>
        <time>2012-06-06T13:16:13Z</time>
      </trkpt>
      <trkpt lat="45.80274" lon="5.65498">
        <ele>370.24</ele>
        <time>2012-06-06T13:16:15Z</time>
      </trkpt>
      <trkpt lat="45.80264" lon="5.6551">
        <ele>369.76</ele>
        <time>2012-06-06T13:16:17Z</time>
      </trkpt>
      <trkpt lat="45.80254" lon="5.65518">
        <ele>368.8</ele>
        <time>2012-06-06T13:16:19Z</time>
      </trkpt>
      <trkpt lat="45.80246" lon="5.6553">
        <ele>366.88</ele>
        <time>2012-06-06T13:16:21Z</time>
      </trkpt>
      <trkpt lat="45.80243" lon="5.65545">
        <ele>365.44</ele>
        <time>2012-06-06T13:16:23Z</time>
      </trkpt>
      <trkpt lat="45.80246" lon="5.65575">
        <ele>364</ele>
        <time>2012-06-06T13:16:26Z</time>
      </trkpt>
      <trkpt lat="45.80253" lon="5.65624">
        <ele>360.63</ele>
        <time>2012-06-06T13:16:30Z</time>
      </trkpt>
      <trkpt lat="45.80255" lon="5.65665">
        <ele>357.75</ele>
        <time>2012-06-06T13:16:33Z</time>
      </trkpt>
      <trkpt lat="45.80258" lon="5.65703">
        <ele>355.83</ele>
        <time>2012-06-06T13:16:36Z</time>
      </trkpt>
      <trkpt lat="45.80268" lon="5.6576">
        <ele>352.94</ele>
        <time>2012-06-06T13:16:41Z</time>
      </trkpt>
      <trkpt lat="45.80274" lon="5.65789">
        <ele>350.54</ele>
        <time>2012-06-06T13:16:44Z</time>
      </trkpt>
      <trkpt lat="45.80273" lon="5.6581">
        <ele>348.13</ele>
        <time>2012-06-06T13:16:46Z</time>
      </trkpt>
      <trkpt lat="45.8027" lon="5.65828">
        <ele>346.69</ele>
        <time>2012-06-06T13:16:48Z</time>
      </trkpt>
      <trkpt lat="45.80264" lon="5.65848">
        <ele>343.81</ele>
        <time>2012-06-06T13:16:51Z</time>
      </trkpt>
      <trkpt lat="45.80249" lon="5.65864">
        <ele>341.89</ele>
        <time>2012-06-06T13:18:22Z</time>
      </trkpt>
      <trkpt lat="45.80208" lon="5.65865">
        <ele>341.89</ele>
        <time>2012-06-06T13:18:35Z</time>
      </trkpt>
      <trkpt lat="45.80178" lon="5.6588">
        <ele>340.44</ele>
        <time>2012-06-06T13:18:43Z</time>
      </trkpt>
      <trkpt lat="45.80179" lon="5.65893">
        <ele>340.44</ele>
        <time>2012-06-06T13:18:45Z</time>
      </trkpt>
      <trkpt lat="45.80186" lon="5.65906">
        <ele>339.96</ele>
        <time>2012-06-06T13:18:47Z</time>
      </trkpt>
      <trkpt lat="45.80199" lon="5.65918">
        <ele>339</ele>
        <time>2012-06-06T13:18:50Z</time>
      </trkpt>
      <trkpt lat="45.80208" lon="5.65934">
        <ele>339</ele>
        <time>2012-06-06T13:18:53Z</time>
      </trkpt>
      <trkpt lat="45.80215" lon="5.65955">
        <ele>338.52</ele>
        <time>2012-06-06T13:18:56Z</time>
      </trkpt>
      <trkpt lat="45.80216" lon="5.65973">
        <ele>338.04</ele>
        <time>2012-06-06T13:18:58Z</time>
      </trkpt>
      <trkpt lat="45.80218" lon="5.66021">
        <ele>335.64</ele>
        <time>2012-06-06T13:19:03Z</time>
      </trkpt>
      <trkpt lat="45.80224" lon="5.66037">
        <ele>335.64</ele>
        <time>2012-06-06T13:19:05Z</time>
      </trkpt>
      <trkpt lat="45.80233" lon="5.66052">
        <ele>335.16</ele>
        <time>2012-06-06T13:19:07Z</time>
      </trkpt>
      <trkpt lat="45.80242" lon="5.6607">
        <ele>332.27</ele>
        <time>2012-06-06T13:19:10Z</time>
      </trkpt>
      <trkpt lat="45.80247" lon="5.66085">
        <ele>331.79</ele>
        <time>2012-06-06T13:19:12Z</time>
      </trkpt>
      <trkpt lat="45.80249" lon="5.66103">
        <ele>330.83</ele>
        <time>2012-06-06T13:19:14Z</time>
      </trkpt>
      <trkpt lat="45.80252" lon="5.66141">
        <ele>327.47</ele>
        <time>2012-06-06T13:19:18Z</time>
      </trkpt>
      <trkpt lat="45.80254" lon="5.66165">
        <ele>325.54</ele>
        <time>2012-06-06T13:19:21Z</time>
      </trkpt>
      <trkpt lat="45.8026" lon="5.66191">
        <ele>324.1</ele>
        <time>2012-06-06T13:19:24Z</time>
      </trkpt>
      <trkpt lat="45.80262" lon="5.6621">
        <ele>322.66</ele>
        <time>2012-06-06T13:19:26Z</time>
      </trkpt>
      <trkpt lat="45.80262" lon="5.66231">
        <ele>321.7</ele>
        <time>2012-06-06T13:19:28Z</time>
      </trkpt>
      <trkpt lat="45.80258" lon="5.66254">
        <ele>320.26</ele>
        <time>2012-06-06T13:19:30Z</time>
      </trkpt>
      <trkpt lat="45.80254" lon="5.66276">
        <ele>318.33</ele>
        <time>2012-06-06T13:19:32Z</time>
      </trkpt>
      <trkpt lat="45.80246" lon="5.66303">
        <ele>316.41</ele>
        <time>2012-06-06T13:19:35Z</time>
      </trkpt>
      <trkpt lat="45.80233" lon="5.66331">
        <ele>314.01</ele>
        <time>2012-06-06T13:19:39Z</time>
      </trkpt>
      <trkpt lat="45.80224" lon="5.66346">
        <ele>311.6</ele>
        <time>2012-06-06T13:19:41Z</time>
      </trkpt>
      <trkpt lat="45.80213" lon="5.66363">
        <ele>309.68</ele>
        <time>2012-06-06T13:19:43Z</time>
      </trkpt>
      <trkpt lat="45.80201" lon="5.66379">
        <ele>309.2</ele>
        <time>2012-06-06T13:19:45Z</time>
      </trkpt>
      <trkpt lat="45.80188" lon="5.66395">
        <ele>306.8</ele>
        <time>2012-06-06T13:19:47Z</time>
      </trkpt>
      <trkpt lat="45.80169" lon="5.66413">
        <ele>305.36</ele>
        <time>2012-06-06T13:19:50Z</time>
      </trkpt>
      <trkpt lat="45.80144" lon="5.66438">
        <ele>304.39</ele>
        <time>2012-06-06T13:19:55Z</time>
      </trkpt>
      <trkpt lat="45.80131" lon="5.66448">
        <ele>302.47</ele>
        <time>2012-06-06T13:19:58Z</time>
      </trkpt>
      <trkpt lat="45.80117" lon="5.6646">
        <ele>300.55</ele>
        <time>2012-06-06T13:20:01Z</time>
      </trkpt>
      <trkpt lat="45.80095" lon="5.66479">
        <ele>297.18</ele>
        <time>2012-06-06T13:20:06Z</time>
      </trkpt>
      <trkpt lat="45.80084" lon="5.66488">
        <ele>295.74</ele>
        <time>2012-06-06T13:20:08Z</time>
      </trkpt>
      <trkpt lat="45.80066" lon="5.66501">
        <ele>293.34</ele>
        <time>2012-06-06T13:20:11Z</time>
      </trkpt>
      <trkpt lat="45.80033" lon="5.66519">
        <ele>290.94</ele>
        <time>2012-06-06T13:20:17Z</time>
      </trkpt>
      <trkpt lat="45.80019" lon="5.66532">
        <ele>288.05</ele>
        <time>2012-06-06T13:20:20Z</time>
      </trkpt>
      <trkpt lat="45.80008" lon="5.66538">
        <ele>286.61</ele>
        <time>2012-06-06T13:20:22Z</time>
      </trkpt>
      <trkpt lat="45.79993" lon="5.66537">
        <ele>284.69</ele>
        <time>2012-06-06T13:20:25Z</time>
      </trkpt>
      <trkpt lat="45.79975" lon="5.66535">
        <ele>282.77</ele>
        <time>2012-06-06T13:20:30Z</time>
      </trkpt>
      <trkpt lat="45.79953" lon="5.66548">
        <ele>278.44</ele>
        <time>2012-06-06T13:21:10Z</time>
      </trkpt>
      <trkpt lat="45.7993" lon="5.66556">
        <ele>275.56</ele>
        <time>2012-06-06T13:21:16Z</time>
      </trkpt>
      <trkpt lat="45.79916" lon="5.66556">
        <ele>274.59</ele>
        <time>2012-06-06T13:21:19Z</time>
      </trkpt>
      <trkpt lat="45.7989" lon="5.66556">
        <ele>274.11</ele>
        <time>2012-06-06T13:21:29Z</time>
      </trkpt>
      <trkpt lat="45.79877" lon="5.66561">
        <ele>274.11</ele>
        <time>2012-06-06T13:21:40Z</time>
      </trkpt>
      <trkpt lat="45.79867" lon="5.66571">
        <ele>272.19</ele>
        <time>2012-06-06T13:26:09Z</time>
      </trkpt>
      <trkpt lat="45.79866" lon="5.66578">
        <ele>271.71</ele>
        <time>2012-06-06T13:26:12Z</time>
      </trkpt>
      <trkpt lat="45.79873" lon="5.66585">
        <ele>269.79</ele>
        <time>2012-06-06T13:26:17Z</time>
      </trkpt>
      <trkpt lat="45.7989" lon="5.66589">
        <ele>266.42</ele>
        <time>2012-06-06T13:26:25Z</time>
      </trkpt>
      <trkpt lat="45.79903" lon="5.66596">
        <ele>263.06</ele>
        <time>2012-06-06T13:26:32Z</time>
      </trkpt>
      <trkpt lat="45.79915" lon="5.66602">
        <ele>261.14</ele>
        <time>2012-06-06T13:26:36Z</time>
      </trkpt>
      <trkpt lat="45.79932" lon="5.66607">
        <ele>258.73</ele>
        <time>2012-06-06T13:26:40Z</time>
      </trkpt>
      <trkpt lat="45.79949" lon="5.66612">
        <ele>256.81</ele>
        <time>2012-06-06T13:26:45Z</time>
      </trkpt>
      <trkpt lat="45.79956" lon="5.66618">
        <ele>256.33</ele>
        <time>2012-06-06T13:26:50Z</time>
      </trkpt>
      <trkpt lat="45.79958" lon="5.66634">
        <ele>254.89</ele>
        <time>2012-06-06T13:26:54Z</time>
      </trkpt>
      <trkpt lat="45.79957" lon="5.66651">
        <ele>254.41</ele>
        <time>2012-06-06T13:26:56Z</time>
      </trkpt>
      <trkpt lat="45.7994" lon="5.66707">
        <ele>252.96</ele>
        <time>2012-06-06T13:27:10Z</time>
      </trkpt>
      <trkpt lat="45.79951" lon="5.6675">
        <ele>255.37</ele>
        <time>2012-06-06T13:27:28Z</time>
      </trkpt>
      <trkpt lat="45.79969" lon="5.66801">
        <ele>260.65</ele>
        <time>2012-06-06T13:28:01Z</time>
      </trkpt>
      <trkpt lat="45.79964" lon="5.66826">
        <ele>262.58</ele>
        <time>2012-06-06T13:28:11Z</time>
      </trkpt>
      <trkpt lat="45.79965" lon="5.6683">
        <ele>263.06</ele>
        <time>2012-06-06T13:28:14Z</time>
      </trkpt>
      <trkpt lat="45.79971" lon="5.66853">
        <ele>264.98</ele>
        <time>2012-06-06T13:28:23Z</time>
      </trkpt>
      <trkpt lat="45.79982" lon="5.66873">
        <ele>266.9</ele>
        <time>2012-06-06T13:28:35Z</time>
      </trkpt>
      <trkpt lat="45.79994" lon="5.66887">
        <ele>268.83</ele>
        <time>2012-06-06T13:28:46Z</time>
      </trkpt>
      <trkpt lat="45.80002" lon="5.66905">
        <ele>269.79</ele>
        <time>2012-06-06T13:28:57Z</time>
      </trkpt>
      <trkpt lat="45.80019" lon="5.66944">
        <ele>270.27</ele>
        <time>2012-06-06T13:30:44Z</time>
      </trkpt>
      <trkpt lat="45.8003" lon="5.66959">
        <ele>270.75</ele>
        <time>2012-06-06T13:31:02Z</time>
      </trkpt>
      <trkpt lat="45.80059" lon="5.67014">
        <ele>270.27</ele>
        <time>2012-06-06T13:31:14Z</time>
      </trkpt>
      <trkpt lat="45.80091" lon="5.67072">
        <ele>269.79</ele>
        <time>2012-06-06T13:31:26Z</time>
      </trkpt>
      <trkpt lat="45.80107" lon="5.67098">
        <ele>269.79</ele>
        <time>2012-06-06T13:31:32Z</time>
      </trkpt>
      <trkpt lat="45.80121" lon="5.671">
        <ele>270.27</ele>
        <time>2012-06-06T13:31:36Z</time>
      </trkpt>
      <trkpt lat="45.80159" lon="5.67119">
        <ele>269.79</ele>
        <time>2012-06-06T13:31:49Z</time>
      </trkpt>
      <trkpt lat="45.80205" lon="5.67144">
        <ele>270.27</ele>
        <time>2012-06-06T13:32:03Z</time>
      </trkpt>
      <trkpt lat="45.8023" lon="5.67158">
        <ele>270.75</ele>
        <time>2012-06-06T13:32:14Z</time>
      </trkpt>
      <trkpt lat="45.80255" lon="5.67166">
        <ele>272.19</ele>
        <time>2012-06-06T13:32:27Z</time>
      </trkpt>
      <trkpt lat="45.8029" lon="5.67174">
        <ele>272.67</ele>
        <time>2012-06-06T13:32:38Z</time>
      </trkpt>
      <trkpt lat="45.8032" lon="5.67177">
        <ele>272.67</ele>
        <time>2012-06-06T13:32:50Z</time>
      </trkpt>
      <trkpt lat="45.80351" lon="5.67158">
        <ele>272.19</ele>
        <time>2012-06-06T13:33:00Z</time>
      </trkpt>
      <trkpt lat="45.80394" lon="5.67141">
        <ele>272.19</ele>
        <time>2012-06-06T13:33:10Z</time>
      </trkpt>
      <trkpt lat="45.8041" lon="5.67156">
        <ele>272.67</ele>
        <time>2012-06-06T13:33:16Z</time>
      </trkpt>
      <trkpt lat="45.8044" lon="5.67213">
        <ele>273.15</ele>
        <time>2012-06-06T13:33:30Z</time>
      </trkpt>
      <trkpt lat="45.80467" lon="5.67254">
        <ele>273.15</ele>
        <time>2012-06-06T13:33:41Z</time>
      </trkpt>
      <trkpt lat="45.80483" lon="5.6728">
        <ele>271.71</ele>
        <time>2012-06-06T13:33:49Z</time>
      </trkpt>
      <trkpt lat="45.80489" lon="5.6729">
        <ele>271.23</ele>
        <time>2012-06-06T13:33:59Z</time>
      </trkpt>
      <trkpt lat="45.80494" lon="5.67289">
        <ele>270.75</ele>
        <time>2012-06-06T13:34:02Z</time>
      </trkpt>
      <trkpt lat="45.80509" lon="5.67292">
        <ele>269.31</ele>
        <time>2012-06-06T13:34:09Z</time>
      </trkpt>
      <trkpt lat="45.8052" lon="5.67292">
        <ele>267.86</ele>
        <time>2012-06-06T13:34:12Z</time>
      </trkpt>
      <trkpt lat="45.80543" lon="5.67289">
        <ele>265.94</ele>
        <time>2012-06-06T13:34:18Z</time>
      </trkpt>
      <trkpt lat="45.80556" lon="5.67288">
        <ele>265.94</ele>
        <time>2012-06-06T13:34:46Z</time>
      </trkpt>
      <trkpt lat="45.80556" lon="5.67288">
        <ele>265.94</ele>
        <time>2012-06-06T13:34:48Z</time>
      </trkpt>
      <trkpt lat="45.80555" lon="5.67272">
        <ele>267.38</ele>
        <time>2012-06-06T13:35:00Z</time>
      </trkpt>
      <trkpt lat="45.80557" lon="5.67265">
        <ele>268.83</ele>
        <time>2012-06-06T13:35:09Z</time>
      </trkpt>
      <trkpt lat="45.80569" lon="5.67258">
        <ele>269.31</ele>
        <time>2012-06-06T13:35:17Z</time>
      </trkpt>
      <trkpt lat="45.8059" lon="5.67252">
        <ele>268.83</ele>
        <time>2012-06-06T13:35:27Z</time>
      </trkpt>
      <trkpt lat="45.80603" lon="5.67242">
        <ele>269.79</ele>
        <time>2012-06-06T13:35:35Z</time>
      </trkpt>
      <trkpt lat="45.80613" lon="5.67227">
        <ele>270.75</ele>
        <time>2012-06-06T13:35:46Z</time>
      </trkpt>
      <trkpt lat="45.80649" lon="5.67202">
        <ele>270.75</ele>
        <time>2012-06-06T13:36:02Z</time>
      </trkpt>
      <trkpt lat="45.80671" lon="5.67194">
        <ele>270.75</ele>
        <time>2012-06-06T13:36:13Z</time>
      </trkpt>
      <trkpt lat="45.8068" lon="5.67183">
        <ele>270.75</ele>
        <time>2012-06-06T13:36:18Z</time>
      </trkpt>
      <trkpt lat="45.80693" lon="5.67173">
        <ele>271.23</ele>
        <time>2012-06-06T13:36:26Z</time>
      </trkpt>
      <trkpt lat="45.80703" lon="5.67167">
        <ele>271.71</ele>
        <time>2012-06-06T13:36:33Z</time>
      </trkpt>
      <trkpt lat="45.80713" lon="5.67164">
        <ele>271.71</ele>
        <time>2012-06-06T13:36:40Z</time>
      </trkpt>
      <trkpt lat="45.80717" lon="5.67171">
        <ele>270.75</ele>
        <time>2012-06-06T13:36:45Z</time>
      </trkpt>
      <trkpt lat="45.80725" lon="5.67162">
        <ele>271.71</ele>
        <time>2012-06-06T13:36:51Z</time>
      </trkpt>
      <trkpt lat="45.80738" lon="5.6714">
        <ele>272.67</ele>
        <time>2012-06-06T13:37:07Z</time>
      </trkpt>
      <trkpt lat="45.80748" lon="5.6712">
        <ele>275.56</ele>
        <time>2012-06-06T13:37:30Z</time>
      </trkpt>
      <trkpt lat="45.80766" lon="5.67094">
        <ele>276.52</ele>
        <time>2012-06-06T13:37:44Z</time>
      </trkpt>
      <trkpt lat="45.80771" lon="5.67089">
        <ele>277</ele>
        <time>2012-06-06T13:37:47Z</time>
      </trkpt>
      <trkpt lat="45.80796" lon="5.67089">
        <ele>279.88</ele>
        <time>2012-06-06T13:38:02Z</time>
      </trkpt>
      <trkpt lat="45.80813" lon="5.67084">
        <ele>280.36</ele>
        <time>2012-06-06T13:38:12Z</time>
      </trkpt>
      <trkpt lat="45.80831" lon="5.67075">
        <ele>280.84</ele>
        <time>2012-06-06T13:38:23Z</time>
      </trkpt>
      <trkpt lat="45.80836" lon="5.67054">
        <ele>282.77</ele>
        <time>2012-06-06T13:38:32Z</time>
      </trkpt>
      <trkpt lat="45.8085" lon="5.67016">
        <ele>283.73</ele>
        <time>2012-06-06T13:38:45Z</time>
      </trkpt>
      <trkpt lat="45.80868" lon="5.66993">
        <ele>284.21</ele>
        <time>2012-06-06T13:38:56Z</time>
      </trkpt>
      <trkpt lat="45.80887" lon="5.66976">
        <ele>285.17</ele>
        <time>2012-06-06T13:39:08Z</time>
      </trkpt>
      <trkpt lat="45.809" lon="5.66964">
        <ele>284.69</ele>
        <time>2012-06-06T13:39:23Z</time>
      </trkpt>
      <trkpt lat="45.80901" lon="5.66963">
        <ele>285.17</ele>
        <time>2012-06-06T13:39:24Z</time>
      </trkpt>
      <trkpt lat="45.80901" lon="5.66956">
        <ele>285.17</ele>
        <time>2012-06-06T13:39:28Z</time>
      </trkpt>
      <trkpt lat="45.80908" lon="5.66923">
        <ele>286.13</ele>
        <time>2012-06-06T13:39:42Z</time>
      </trkpt>
      <trkpt lat="45.80915" lon="5.66907">
        <ele>287.09</ele>
        <time>2012-06-06T13:39:48Z</time>
      </trkpt>
      <trkpt lat="45.80924" lon="5.66884">
        <ele>287.57</ele>
        <time>2012-06-06T13:39:57Z</time>
      </trkpt>
      <trkpt lat="45.80922" lon="5.66868">
        <ele>286.61</ele>
        <time>2012-06-06T13:40:06Z</time>
      </trkpt>
      <trkpt lat="45.80933" lon="5.66831">
        <ele>288.53</ele>
        <time>2012-06-06T13:40:19Z</time>
      </trkpt>
      <trkpt lat="45.80935" lon="5.66813">
        <ele>288.05</ele>
        <time>2012-06-06T13:40:25Z</time>
      </trkpt>
      <trkpt lat="45.80943" lon="5.6678">
        <ele>288.53</ele>
        <time>2012-06-06T13:40:36Z</time>
      </trkpt>
      <trkpt lat="45.80954" lon="5.66753">
        <ele>288.05</ele>
        <time>2012-06-06T13:40:45Z</time>
      </trkpt>
      <trkpt lat="45.80952" lon="5.66738">
        <ele>287.57</ele>
        <time>2012-06-06T13:40:51Z</time>
      </trkpt>
      <trkpt lat="45.80948" lon="5.66733">
        <ele>288.53</ele>
        <time>2012-06-06T13:40:55Z</time>
      </trkpt>
      <trkpt lat="45.80935" lon="5.66731">
        <ele>288.05</ele>
        <time>2012-06-06T13:41:03Z</time>
      </trkpt>
      <trkpt lat="45.80923" lon="5.66747">
        <ele>288.53</ele>
        <time>2012-06-06T13:41:14Z</time>
      </trkpt>
      <trkpt lat="45.80905" lon="5.66769">
        <ele>287.57</ele>
        <time>2012-06-06T13:41:23Z</time>
      </trkpt>
      <trkpt lat="45.80894" lon="5.66783">
        <ele>287.09</ele>
        <time>2012-06-06T13:41:28Z</time>
      </trkpt>
      <trkpt lat="45.80863" lon="5.66795">
        <ele>287.09</ele>
        <time>2012-06-06T13:41:40Z</time>
      </trkpt>
      <trkpt lat="45.80852" lon="5.66796">
        <ele>287.09</ele>
        <time>2012-06-06T13:42:12Z</time>
      </trkpt>
      <trkpt lat="45.80836" lon="5.66801">
        <ele>287.09</ele>
        <time>2012-06-06T13:43:01Z</time>
      </trkpt>
      <trkpt lat="45.80809" lon="5.66813">
        <ele>287.57</ele>
        <time>2012-06-06T13:43:11Z</time>
      </trkpt>
      <trkpt lat="45.80791" lon="5.66824">
        <ele>288.05</ele>
        <time>2012-06-06T13:43:20Z</time>
      </trkpt>
      <trkpt lat="45.80778" lon="5.66832">
        <ele>288.53</ele>
        <time>2012-06-06T13:43:28Z</time>
      </trkpt>
      <trkpt lat="45.80758" lon="5.66852">
        <ele>287.09</ele>
        <time>2012-06-06T13:43:38Z</time>
      </trkpt>
      <trkpt lat="45.80748" lon="5.66865">
        <ele>286.61</ele>
        <time>2012-06-06T13:43:41Z</time>
      </trkpt>
      <trkpt lat="45.8071" lon="5.66893">
        <ele>286.13</ele>
        <time>2012-06-06T13:43:52Z</time>
      </trkpt>
      <trkpt lat="45.80695" lon="5.66897">
        <ele>286.13</ele>
        <time>2012-06-06T13:43:58Z</time>
      </trkpt>
      <trkpt lat="45.80672" lon="5.66887">
        <ele>285.17</ele>
        <time>2012-06-06T13:44:05Z</time>
      </trkpt>
      <trkpt lat="45.80641" lon="5.66884">
        <ele>286.61</ele>
        <time>2012-06-06T13:44:18Z</time>
      </trkpt>
      <trkpt lat="45.80617" lon="5.66896">
        <ele>286.61</ele>
        <time>2012-06-06T13:44:29Z</time>
      </trkpt>
      <trkpt lat="45.80587" lon="5.66921">
        <ele>287.57</ele>
        <time>2012-06-06T13:44:43Z</time>
      </trkpt>
      <trkpt lat="45.80545" lon="5.66934">
        <ele>286.13</ele>
        <time>2012-06-06T13:44:55Z</time>
      </trkpt>
      <trkpt lat="45.8052" lon="5.66921">
        <ele>285.65</ele>
        <time>2012-06-06T13:45:04Z</time>
      </trkpt>
      <trkpt lat="45.80497" lon="5.66914">
        <ele>285.65</ele>
        <time>2012-06-06T13:45:12Z</time>
      </trkpt>
      <trkpt lat="45.80489" lon="5.6691">
        <ele>285.17</ele>
        <time>2012-06-06T13:45:14Z</time>
      </trkpt>
      <trkpt lat="45.8046" lon="5.66915">
        <ele>283.73</ele>
        <time>2012-06-06T13:45:23Z</time>
      </trkpt>
      <trkpt lat="45.8044" lon="5.66931">
        <ele>283.25</ele>
        <time>2012-06-06T13:45:30Z</time>
      </trkpt>
      <trkpt lat="45.8043" lon="5.66932">
        <ele>283.25</ele>
        <time>2012-06-06T13:45:34Z</time>
      </trkpt>
      <trkpt lat="45.80409" lon="5.66918">
        <ele>284.21</ele>
        <time>2012-06-06T13:45:44Z</time>
      </trkpt>
      <trkpt lat="45.80384" lon="5.66895">
        <ele>284.69</ele>
        <time>2012-06-06T13:45:57Z</time>
      </trkpt>
      <trkpt lat="45.80356" lon="5.66894">
        <ele>283.25</ele>
        <time>2012-06-06T13:46:12Z</time>
      </trkpt>
      <trkpt lat="45.80329" lon="5.66888">
        <ele>284.21</ele>
        <time>2012-06-06T13:46:21Z</time>
      </trkpt>
      <trkpt lat="45.80305" lon="5.66886">
        <ele>284.21</ele>
        <time>2012-06-06T13:46:30Z</time>
      </trkpt>
      <trkpt lat="45.80299" lon="5.66859">
        <ele>287.57</ele>
        <time>2012-06-06T13:46:45Z</time>
      </trkpt>
      <trkpt lat="45.80279" lon="5.66861">
        <ele>286.61</ele>
        <time>2012-06-06T13:46:56Z</time>
      </trkpt>
      <trkpt lat="45.80245" lon="5.66858">
        <ele>287.09</ele>
        <time>2012-06-06T13:47:08Z</time>
      </trkpt>
      <trkpt lat="45.80234" lon="5.66855">
        <ele>286.13</ele>
        <time>2012-06-06T13:47:12Z</time>
      </trkpt>
      <trkpt lat="45.80214" lon="5.6684">
        <ele>284.21</ele>
        <time>2012-06-06T13:47:18Z</time>
      </trkpt>
      <trkpt lat="45.80201" lon="5.66824">
        <ele>282.77</ele>
        <time>2012-06-06T13:47:22Z</time>
      </trkpt>
      <trkpt lat="45.8019" lon="5.66815">
        <ele>281.32</ele>
        <time>2012-06-06T13:47:25Z</time>
      </trkpt>
      <trkpt lat="45.80176" lon="5.6681">
        <ele>280.84</ele>
        <time>2012-06-06T13:47:35Z</time>
      </trkpt>
      <trkpt lat="45.80187" lon="5.66795">
        <ele>280.84</ele>
        <time>2012-06-06T13:47:45Z</time>
      </trkpt>
      <trkpt lat="45.80203" lon="5.66784">
        <ele>283.25</ele>
        <time>2012-06-06T13:47:56Z</time>
      </trkpt>
      <trkpt lat="45.80218" lon="5.66755">
        <ele>282.77</ele>
        <time>2012-06-06T13:48:06Z</time>
      </trkpt>
      <trkpt lat="45.8022" lon="5.66741">
        <ele>282.28</ele>
        <time>2012-06-06T13:48:14Z</time>
      </trkpt>
      <trkpt lat="45.8022" lon="5.66731">
        <ele>281.32</ele>
        <time>2012-06-06T13:48:27Z</time>
      </trkpt>
      <trkpt lat="45.80218" lon="5.66719">
        <ele>281.32</ele>
        <time>2012-06-06T13:48:39Z</time>
      </trkpt>
      <trkpt lat="45.80222" lon="5.66713">
        <ele>282.77</ele>
        <time>2012-06-06T13:48:44Z</time>
      </trkpt>
      <trkpt lat="45.80242" lon="5.66697">
        <ele>285.17</ele>
        <time>2012-06-06T13:48:57Z</time>
      </trkpt>
      <trkpt lat="45.8025" lon="5.66695">
        <ele>285.65</ele>
        <time>2012-06-06T13:49:02Z</time>
      </trkpt>
      <trkpt lat="45.80266" lon="5.66684">
        <ele>287.09</ele>
        <time>2012-06-06T13:49:28Z</time>
      </trkpt>
      <trkpt lat="45.80272" lon="5.66676">
        <ele>289.01</ele>
        <time>2012-06-06T13:49:42Z</time>
      </trkpt>
      <trkpt lat="45.80288" lon="5.66645">
        <ele>286.61</ele>
        <time>2012-06-06T13:49:52Z</time>
      </trkpt>
      <trkpt lat="45.80295" lon="5.66631">
        <ele>285.65</ele>
        <time>2012-06-06T13:50:07Z</time>
      </trkpt>
      <trkpt lat="45.80295" lon="5.66631">
        <ele>285.65</ele>
        <time>2012-06-06T13:50:33Z</time>
      </trkpt>
      <trkpt lat="45.80296" lon="5.66623">
        <ele>286.13</ele>
        <time>2012-06-06T13:50:43Z</time>
      </trkpt>
      <trkpt lat="45.8029" lon="5.66618">
        <ele>283.25</ele>
        <time>2012-06-06T13:50:52Z</time>
      </trkpt>
      <trkpt lat="45.80281" lon="5.66615">
        <ele>280.36</ele>
        <time>2012-06-06T13:51:02Z</time>
      </trkpt>
      <trkpt lat="45.80273" lon="5.66617">
        <ele>279.4</ele>
        <time>2012-06-06T13:51:10Z</time>
      </trkpt>
      <trkpt lat="45.80263" lon="5.66613">
        <ele>275.07</ele>
        <time>2012-06-06T13:51:35Z</time>
      </trkpt>
      <trkpt lat="45.80259" lon="5.6661">
        <ele>273.15</ele>
        <time>2012-06-06T13:51:45Z</time>
      </trkpt>
      <trkpt lat="45.8025" lon="5.66609">
        <ele>268.35</ele>
        <time>2012-06-06T13:52:05Z</time>
      </trkpt>
      <trkpt lat="45.80246" lon="5.6659">
        <ele>263.06</ele>
        <time>2012-06-06T13:52:24Z</time>
      </trkpt>
      <trkpt lat="45.80239" lon="5.66567">
        <ele>260.17</ele>
        <time>2012-06-06T13:53:01Z</time>
      </trkpt>
      <trkpt lat="45.80223" lon="5.66572">
        <ele>258.73</ele>
        <time>2012-06-06T13:53:11Z</time>
      </trkpt>
      <trkpt lat="45.80213" lon="5.66579">
        <ele>256.81</ele>
        <time>2012-06-06T13:53:17Z</time>
      </trkpt>
      <trkpt lat="45.802" lon="5.66583">
        <ele>256.33</ele>
        <time>2012-06-06T13:53:22Z</time>
      </trkpt>
      <trkpt lat="45.8017" lon="5.66597">
        <ele>256.33</ele>
        <time>2012-06-06T13:53:32Z</time>
      </trkpt>
      <trkpt lat="45.80133" lon="5.66612">
        <ele>255.85</ele>
        <time>2012-06-06T13:53:42Z</time>
      </trkpt>
      <trkpt lat="45.80096" lon="5.66608">
        <ele>256.81</ele>
        <time>2012-06-06T13:53:53Z</time>
      </trkpt>
      <trkpt lat="45.80056" lon="5.66613">
        <ele>256.33</ele>
        <time>2012-06-06T13:54:02Z</time>
      </trkpt>
      <trkpt lat="45.80009" lon="5.66616">
        <ele>257.29</ele>
        <time>2012-06-06T13:54:17Z</time>
      </trkpt>
      <trkpt lat="45.79984" lon="5.66612">
        <ele>259.69</ele>
        <time>2012-06-06T13:54:35Z</time>
      </trkpt>
      <trkpt lat="45.79967" lon="5.66626">
        <ele>258.25</ele>
        <time>2012-06-06T13:54:41Z</time>
      </trkpt>
      <trkpt lat="45.79963" lon="5.66655">
        <ele>256.81</ele>
        <time>2012-06-06T13:54:46Z</time>
      </trkpt>
      <trkpt lat="45.79945" lon="5.66704">
        <ele>255.85</ele>
        <time>2012-06-06T13:55:02Z</time>
      </trkpt>
      <trkpt lat="45.79943" lon="5.66729">
        <ele>256.33</ele>
        <time>2012-06-06T13:55:12Z</time>
      </trkpt>
      <trkpt lat="45.79952" lon="5.66752">
        <ele>257.77</ele>
        <time>2012-06-06T13:55:24Z</time>
      </trkpt>
      <trkpt lat="45.79963" lon="5.66774">
        <ele>259.21</ele>
        <time>2012-06-06T13:55:38Z</time>
      </trkpt>
      <trkpt lat="45.7997" lon="5.66805">
        <ele>262.58</ele>
        <time>2012-06-06T13:55:57Z</time>
      </trkpt>
      <trkpt lat="45.79965" lon="5.66828">
        <ele>264.02</ele>
        <time>2012-06-06T13:56:14Z</time>
      </trkpt>
      <trkpt lat="45.79957" lon="5.66832">
        <ele>264.5</ele>
        <time>2012-06-06T13:56:37Z</time>
      </trkpt>
      <trkpt lat="45.7994" lon="5.66827">
        <ele>265.46</ele>
        <time>2012-06-06T13:56:50Z</time>
      </trkpt>
      <trkpt lat="45.79916" lon="5.66811">
        <ele>267.86</ele>
        <time>2012-06-06T13:57:22Z</time>
      </trkpt>
      <trkpt lat="45.79878" lon="5.6678">
        <ele>268.83</ele>
        <time>2012-06-06T13:57:37Z</time>
      </trkpt>
      <trkpt lat="45.79854" lon="5.66771">
        <ele>270.75</ele>
        <time>2012-06-06T13:57:48Z</time>
      </trkpt>
      <trkpt lat="45.79832" lon="5.6677">
        <ele>270.75</ele>
        <time>2012-06-06T14:05:45Z</time>
      </trkpt>
      <trkpt lat="45.79804" lon="5.66784">
        <ele>269.31</ele>
        <time>2012-06-06T14:05:55Z</time>
      </trkpt>
      <trkpt lat="45.79757" lon="5.66778">
        <ele>267.86</ele>
        <time>2012-06-06T14:06:09Z</time>
      </trkpt>
      <trkpt lat="45.79721" lon="5.6675">
        <ele>268.35</ele>
        <time>2012-06-06T14:06:20Z</time>
      </trkpt>
      <trkpt lat="45.79679" lon="5.66751">
        <ele>267.86</ele>
        <time>2012-06-06T14:06:32Z</time>
      </trkpt>
      <trkpt lat="45.79653" lon="5.66753">
        <ele>267.86</ele>
        <time>2012-06-06T14:06:41Z</time>
      </trkpt>
      <trkpt lat="45.79643" lon="5.66759">
        <ele>269.31</ele>
        <time>2012-06-06T14:06:45Z</time>
      </trkpt>
      <trkpt lat="45.79612" lon="5.66765">
        <ele>268.83</ele>
        <time>2012-06-06T14:06:54Z</time>
      </trkpt>
      <trkpt lat="45.796" lon="5.66769">
        <ele>268.35</ele>
        <time>2012-06-06T14:06:57Z</time>
      </trkpt>
      <trkpt lat="45.79579" lon="5.6676">
        <ele>266.42</ele>
        <time>2012-06-06T14:07:08Z</time>
      </trkpt>
      <trkpt lat="45.79579" lon="5.6676">
        <ele>266.42</ele>
        <time>2012-06-06T14:07:10Z</time>
      </trkpt>
      <trkpt lat="45.79567" lon="5.66755">
        <ele>266.42</ele>
        <time>2012-06-06T14:07:20Z</time>
      </trkpt>
      <trkpt lat="45.79567" lon="5.66755">
        <ele>266.42</ele>
        <time>2012-06-06T14:07:21Z</time>
      </trkpt>
      <trkpt lat="45.79564" lon="5.66747">
        <ele>265.46</ele>
        <time>2012-06-06T14:07:36Z</time>
      </trkpt>
      <trkpt lat="45.79564" lon="5.66747">
        <ele>264.98</ele>
        <time>2012-06-06T14:07:39Z</time>
      </trkpt>
      <trkpt lat="45.79559" lon="5.66736">
        <ele>263.54</ele>
        <time>2012-06-06T14:07:46Z</time>
      </trkpt>
      <trkpt lat="45.7956" lon="5.66726">
        <ele>261.14</ele>
        <time>2012-06-06T14:07:51Z</time>
      </trkpt>
      <trkpt lat="45.7956" lon="5.66701">
        <ele>258.73</ele>
        <time>2012-06-06T14:07:57Z</time>
      </trkpt>
      <trkpt lat="45.79557" lon="5.66695">
        <ele>257.29</ele>
        <time>2012-06-06T14:08:03Z</time>
      </trkpt>
      <trkpt lat="45.79548" lon="5.66687">
        <ele>255.37</ele>
        <time>2012-06-06T14:08:13Z</time>
      </trkpt>
      <trkpt lat="45.79544" lon="5.6667">
        <ele>253.93</ele>
        <time>2012-06-06T14:08:22Z</time>
      </trkpt>
      <trkpt lat="45.7954" lon="5.66659">
        <ele>253.93</ele>
        <time>2012-06-06T14:08:38Z</time>
      </trkpt>
      <trkpt lat="45.7953" lon="5.66651">
        <ele>257.77</ele>
        <time>2012-06-06T14:09:08Z</time>
      </trkpt>
      <trkpt lat="45.79521" lon="5.66656">
        <ele>260.17</ele>
        <time>2012-06-06T14:09:22Z</time>
      </trkpt>
      <trkpt lat="45.7951" lon="5.6666">
        <ele>261.62</ele>
        <time>2012-06-06T14:09:36Z</time>
      </trkpt>
      <trkpt lat="45.79495" lon="5.66685">
        <ele>262.58</ele>
        <time>2012-06-06T14:09:57Z</time>
      </trkpt>
      <trkpt lat="45.79473" lon="5.66706">
        <ele>265.94</ele>
        <time>2012-06-06T14:10:18Z</time>
      </trkpt>
      <trkpt lat="45.79453" lon="5.66707">
        <ele>268.35</ele>
        <time>2012-06-06T14:10:36Z</time>
      </trkpt>
      <trkpt lat="45.79444" lon="5.66697">
        <ele>269.79</ele>
        <time>2012-06-06T14:10:46Z</time>
      </trkpt>
      <trkpt lat="45.79432" lon="5.66708">
        <ele>270.75</ele>
        <time>2012-06-06T14:10:55Z</time>
      </trkpt>
      <trkpt lat="45.79424" lon="5.6671">
        <ele>272.67</ele>
        <time>2012-06-06T14:11:00Z</time>
      </trkpt>
      <trkpt lat="45.79415" lon="5.66723">
        <ele>272.67</ele>
        <time>2012-06-06T14:11:05Z</time>
      </trkpt>
      <trkpt lat="45.79398" lon="5.66762">
        <ele>270.75</ele>
        <time>2012-06-06T14:15:00Z</time>
      </trkpt>
      <trkpt lat="45.79393" lon="5.66762">
        <ele>271.23</ele>
        <time>2012-06-06T14:15:06Z</time>
      </trkpt>
      <trkpt lat="45.79391" lon="5.66746">
        <ele>273.15</ele>
        <time>2012-06-06T14:15:16Z</time>
      </trkpt>
      <trkpt lat="45.79385" lon="5.66723">
        <ele>273.15</ele>
        <time>2012-06-06T14:15:30Z</time>
      </trkpt>
      <trkpt lat="45.79387" lon="5.66694">
        <ele>277.48</ele>
        <time>2012-06-06T14:15:53Z</time>
      </trkpt>
      <trkpt lat="45.7938" lon="5.66692">
        <ele>277.48</ele>
        <time>2012-06-06T14:15:59Z</time>
      </trkpt>
      <trkpt lat="45.79366" lon="5.66676">
        <ele>280.36</ele>
        <time>2012-06-06T14:16:14Z</time>
      </trkpt>
      <trkpt lat="45.79354" lon="5.66662">
        <ele>284.21</ele>
        <time>2012-06-06T14:16:42Z</time>
      </trkpt>
      <trkpt lat="45.79346" lon="5.66639">
        <ele>283.73</ele>
        <time>2012-06-06T14:16:51Z</time>
      </trkpt>
      <trkpt lat="45.79345" lon="5.66611">
        <ele>284.69</ele>
        <time>2012-06-06T14:17:00Z</time>
      </trkpt>
      <trkpt lat="45.79348" lon="5.66572">
        <ele>284.69</ele>
        <time>2012-06-06T14:17:12Z</time>
      </trkpt>
      <trkpt lat="45.79337" lon="5.66542">
        <ele>284.69</ele>
        <time>2012-06-06T14:17:25Z</time>
      </trkpt>
      <trkpt lat="45.79329" lon="5.66527">
        <ele>284.21</ele>
        <time>2012-06-06T14:17:41Z</time>
      </trkpt>
      <trkpt lat="45.79331" lon="5.6652">
        <ele>284.21</ele>
        <time>2012-06-06T14:17:47Z</time>
      </trkpt>
      <trkpt lat="45.79357" lon="5.66514">
        <ele>283.25</ele>
        <time>2012-06-06T14:18:00Z</time>
      </trkpt>
      <trkpt lat="45.79367" lon="5.66503">
        <ele>281.32</ele>
        <time>2012-06-06T14:18:07Z</time>
      </trkpt>
      <trkpt lat="45.7937" lon="5.66482">
        <ele>281.8</ele>
        <time>2012-06-06T14:18:13Z</time>
      </trkpt>
      <trkpt lat="45.79377" lon="5.66467">
        <ele>279.88</ele>
        <time>2012-06-06T14:18:24Z</time>
      </trkpt>
      <trkpt lat="45.79371" lon="5.66438">
        <ele>277.48</ele>
        <time>2012-06-06T14:18:33Z</time>
      </trkpt>
      <trkpt lat="45.79322" lon="5.66382">
        <ele>273.63</ele>
        <time>2012-06-06T14:18:51Z</time>
      </trkpt>
      <trkpt lat="45.79297" lon="5.66331">
        <ele>273.63</ele>
        <time>2012-06-06T14:19:03Z</time>
      </trkpt>
      <trkpt lat="45.7927" lon="5.66289">
        <ele>272.67</ele>
        <time>2012-06-06T14:19:13Z</time>
      </trkpt>
      <trkpt lat="45.79228" lon="5.66249">
        <ele>273.63</ele>
        <time>2012-06-06T14:19:25Z</time>
      </trkpt>
      <trkpt lat="45.79197" lon="5.66198">
        <ele>274.11</ele>
        <time>2012-06-06T14:19:37Z</time>
      </trkpt>
      <trkpt lat="45.79169" lon="5.6617">
        <ele>271.71</ele>
        <time>2012-06-06T14:19:49Z</time>
      </trkpt>
      <trkpt lat="45.79156" lon="5.66162">
        <ele>268.35</ele>
        <time>2012-06-06T14:19:57Z</time>
      </trkpt>
      <trkpt lat="45.79141" lon="5.6613">
        <ele>264.5</ele>
        <time>2012-06-06T14:20:06Z</time>
      </trkpt>
      <trkpt lat="45.79093" lon="5.66091">
        <ele>262.58</ele>
        <time>2012-06-06T14:20:18Z</time>
      </trkpt>
      <trkpt lat="45.7903" lon="5.66048">
        <ele>261.14</ele>
        <time>2012-06-06T14:20:31Z</time>
      </trkpt>
      <trkpt lat="45.78976" lon="5.66029">
        <ele>264.02</ele>
        <time>2012-06-06T14:20:44Z</time>
      </trkpt>
      <trkpt lat="45.78936" lon="5.66025">
        <ele>264.5</ele>
        <time>2012-06-06T14:20:55Z</time>
      </trkpt>
      <trkpt lat="45.78909" lon="5.66022">
        <ele>265.46</ele>
        <time>2012-06-06T14:21:06Z</time>
      </trkpt>
      <trkpt lat="45.78881" lon="5.65997">
        <ele>265.94</ele>
        <time>2012-06-06T14:21:19Z</time>
      </trkpt>
      <trkpt lat="45.78854" lon="5.65997">
        <ele>268.35</ele>
        <time>2012-06-06T14:21:31Z</time>
      </trkpt>
      <trkpt lat="45.78825" lon="5.65982">
        <ele>264.98</ele>
        <time>2012-06-06T14:21:41Z</time>
      </trkpt>
      <trkpt lat="45.78813" lon="5.65967">
        <ele>264.02</ele>
        <time>2012-06-06T14:21:44Z</time>
      </trkpt>
      <trkpt lat="45.78794" lon="5.65963">
        <ele>261.14</ele>
        <time>2012-06-06T14:21:48Z</time>
      </trkpt>
      <trkpt lat="45.78784" lon="5.65964">
        <ele>260.65</ele>
        <time>2012-06-06T14:21:50Z</time>
      </trkpt>
      <trkpt lat="45.78741" lon="5.65957">
        <ele>260.65</ele>
        <time>2012-06-06T14:22:01Z</time>
      </trkpt>
      <trkpt lat="45.78697" lon="5.65947">
        <ele>260.17</ele>
        <time>2012-06-06T14:22:12Z</time>
      </trkpt>
      <trkpt lat="45.78676" lon="5.65939">
        <ele>260.17</ele>
        <time>2012-06-06T14:22:17Z</time>
      </trkpt>
      <trkpt lat="45.78646" lon="5.65931">
        <ele>259.69</ele>
        <time>2012-06-06T14:22:29Z</time>
      </trkpt>
      <trkpt lat="45.78648" lon="5.65899">
        <ele>260.17</ele>
        <time>2012-06-06T14:22:39Z</time>
      </trkpt>
      <trkpt lat="45.78651" lon="5.65845">
        <ele>261.62</ele>
        <time>2012-06-06T14:22:51Z</time>
      </trkpt>
      <trkpt lat="45.78659" lon="5.6578">
        <ele>262.1</ele>
        <time>2012-06-06T14:23:04Z</time>
      </trkpt>
      <trkpt lat="45.78669" lon="5.65726">
        <ele>264.02</ele>
        <time>2012-06-06T14:23:17Z</time>
      </trkpt>
      <trkpt lat="45.7866" lon="5.65717">
        <ele>264.5</ele>
        <time>2012-06-06T14:23:21Z</time>
      </trkpt>
      <trkpt lat="45.78631" lon="5.65707">
        <ele>264.5</ele>
        <time>2012-06-06T14:23:28Z</time>
      </trkpt>
      <trkpt lat="45.78596" lon="5.6568">
        <ele>263.54</ele>
        <time>2012-06-06T14:23:36Z</time>
      </trkpt>
      <trkpt lat="45.78507" lon="5.65648">
        <ele>263.06</ele>
        <time>2012-06-06T14:23:51Z</time>
      </trkpt>
      <trkpt lat="45.78388" lon="5.65658">
        <ele>261.62</ele>
        <time>2012-06-06T14:24:09Z</time>
      </trkpt>
      <trkpt lat="45.78375" lon="5.6566">
        <ele>261.62</ele>
        <time>2012-06-06T14:24:11Z</time>
      </trkpt>
      <trkpt lat="45.78362" lon="5.65666">
        <ele>261.14</ele>
        <time>2012-06-06T14:24:13Z</time>
      </trkpt>
      <trkpt lat="45.78349" lon="5.65674">
        <ele>260.17</ele>
        <time>2012-06-06T14:24:15Z</time>
      </trkpt>
      <trkpt lat="45.78331" lon="5.65693">
        <ele>259.69</ele>
        <time>2012-06-06T14:24:18Z</time>
      </trkpt>
      <trkpt lat="45.78313" lon="5.65714">
        <ele>259.69</ele>
        <time>2012-06-06T14:24:21Z</time>
      </trkpt>
      <trkpt lat="45.783" lon="5.65725">
        <ele>259.21</ele>
        <time>2012-06-06T14:24:23Z</time>
      </trkpt>
      <trkpt lat="45.78278" lon="5.65734">
        <ele>258.25</ele>
        <time>2012-06-06T14:24:26Z</time>
      </trkpt>
      <trkpt lat="45.78156" lon="5.65782">
        <ele>260.17</ele>
        <time>2012-06-06T14:24:44Z</time>
      </trkpt>
      <trkpt lat="45.78064" lon="5.65826">
        <ele>261.14</ele>
        <time>2012-06-06T14:25:01Z</time>
      </trkpt>
      <trkpt lat="45.77987" lon="5.65837">
        <ele>262.58</ele>
        <time>2012-06-06T14:25:17Z</time>
      </trkpt>
      <trkpt lat="45.77974" lon="5.65838">
        <ele>262.58</ele>
        <time>2012-06-06T14:25:20Z</time>
      </trkpt>
      <trkpt lat="45.77961" lon="5.65849">
        <ele>262.1</ele>
        <time>2012-06-06T14:25:23Z</time>
      </trkpt>
      <trkpt lat="45.77885" lon="5.65896">
        <ele>258.73</ele>
        <time>2012-06-06T14:25:36Z</time>
      </trkpt>
      <trkpt lat="45.77846" lon="5.65914">
        <ele>256.33</ele>
        <time>2012-06-06T14:25:43Z</time>
      </trkpt>
      <trkpt lat="45.77839" lon="5.6591">
        <ele>255.85</ele>
        <time>2012-06-06T14:25:45Z</time>
      </trkpt>
      <trkpt lat="45.77838" lon="5.65899">
        <ele>256.33</ele>
        <time>2012-06-06T14:25:47Z</time>
      </trkpt>
      <trkpt lat="45.7786" lon="5.65837">
        <ele>259.69</ele>
        <time>2012-06-06T14:26:03Z</time>
      </trkpt>
      <trkpt lat="45.77863" lon="5.65768">
        <ele>261.14</ele>
        <time>2012-06-06T14:27:31Z</time>
      </trkpt>
      <trkpt lat="45.77848" lon="5.65705">
        <ele>264.5</ele>
        <time>2012-06-06T14:27:46Z</time>
      </trkpt>
      <trkpt lat="45.77836" lon="5.65669">
        <ele>267.38</ele>
        <time>2012-06-06T14:27:55Z</time>
      </trkpt>
      <trkpt lat="45.77799" lon="5.65632">
        <ele>270.75</ele>
        <time>2012-06-06T14:28:10Z</time>
      </trkpt>
      <trkpt lat="45.77754" lon="5.65598">
        <ele>272.19</ele>
        <time>2012-06-06T14:28:26Z</time>
      </trkpt>
      <trkpt lat="45.77708" lon="5.65561">
        <ele>273.63</ele>
        <time>2012-06-06T14:28:43Z</time>
      </trkpt>
      <trkpt lat="45.77671" lon="5.65528">
        <ele>276.52</ele>
        <time>2012-06-06T14:28:57Z</time>
      </trkpt>
      <trkpt lat="45.77644" lon="5.65506">
        <ele>279.88</ele>
        <time>2012-06-06T14:29:08Z</time>
      </trkpt>
      <trkpt lat="45.77613" lon="5.65477">
        <ele>282.77</ele>
        <time>2012-06-06T14:29:21Z</time>
      </trkpt>
      <trkpt lat="45.77589" lon="5.65454">
        <ele>283.25</ele>
        <time>2012-06-06T14:29:34Z</time>
      </trkpt>
      <trkpt lat="45.77543" lon="5.65431">
        <ele>281.8</ele>
        <time>2012-06-06T14:29:48Z</time>
      </trkpt>
      <trkpt lat="45.7751" lon="5.6543">
        <ele>281.32</ele>
        <time>2012-06-06T14:29:56Z</time>
      </trkpt>
      <trkpt lat="45.77457" lon="5.65452">
        <ele>283.73</ele>
        <time>2012-06-06T14:30:12Z</time>
      </trkpt>
      <trkpt lat="45.77416" lon="5.65467">
        <ele>283.73</ele>
        <time>2012-06-06T14:30:24Z</time>
      </trkpt>
      <trkpt lat="45.77389" lon="5.65472">
        <ele>282.77</ele>
        <time>2012-06-06T14:30:30Z</time>
      </trkpt>
      <trkpt lat="45.77318" lon="5.65462">
        <ele>279.88</ele>
        <time>2012-06-06T14:30:42Z</time>
      </trkpt>
      <trkpt lat="45.77253" lon="5.65453">
        <ele>276.04</ele>
        <time>2012-06-06T14:30:50Z</time>
      </trkpt>
      <trkpt lat="45.77175" lon="5.6545">
        <ele>275.07</ele>
        <time>2012-06-06T14:31:00Z</time>
      </trkpt>
      <trkpt lat="45.77125" lon="5.65455">
        <ele>273.63</ele>
        <time>2012-06-06T14:31:26Z</time>
      </trkpt>
      <trkpt lat="45.77098" lon="5.65432">
        <ele>277</ele>
        <time>2012-06-06T14:31:59Z</time>
      </trkpt>
      <trkpt lat="45.77074" lon="5.65409">
        <ele>278.44</ele>
        <time>2012-06-06T14:32:14Z</time>
      </trkpt>
      <trkpt lat="45.77054" lon="5.65389">
        <ele>280.84</ele>
        <time>2012-06-06T14:32:27Z</time>
      </trkpt>
      <trkpt lat="45.77042" lon="5.65372">
        <ele>283.25</ele>
        <time>2012-06-06T14:32:41Z</time>
      </trkpt>
      <trkpt lat="45.77027" lon="5.65356">
        <ele>284.69</ele>
        <time>2012-06-06T14:32:52Z</time>
      </trkpt>
      <trkpt lat="45.77008" lon="5.65334">
        <ele>285.65</ele>
        <time>2012-06-06T14:33:06Z</time>
      </trkpt>
      <trkpt lat="45.76983" lon="5.65306">
        <ele>284.69</ele>
        <time>2012-06-06T14:33:19Z</time>
      </trkpt>
      <trkpt lat="45.76948" lon="5.65299">
        <ele>281.8</ele>
        <time>2012-06-06T14:33:30Z</time>
      </trkpt>
      <trkpt lat="45.76904" lon="5.65288">
        <ele>281.32</ele>
        <time>2012-06-06T14:33:42Z</time>
      </trkpt>
      <trkpt lat="45.76859" lon="5.65281">
        <ele>280.84</ele>
        <time>2012-06-06T14:33:57Z</time>
      </trkpt>
      <trkpt lat="45.7685" lon="5.65281">
        <ele>280.84</ele>
        <time>2012-06-06T14:33:59Z</time>
      </trkpt>
      <trkpt lat="45.76814" lon="5.65302">
        <ele>275.07</ele>
        <time>2012-06-06T14:34:08Z</time>
      </trkpt>
      <trkpt lat="45.76799" lon="5.65297">
        <ele>272.19</ele>
        <time>2012-06-06T14:34:13Z</time>
      </trkpt>
      <trkpt lat="45.76777" lon="5.65301">
        <ele>268.35</ele>
        <time>2012-06-06T14:34:20Z</time>
      </trkpt>
      <trkpt lat="45.76751" lon="5.65308">
        <ele>265.46</ele>
        <time>2012-06-06T14:34:28Z</time>
      </trkpt>
      <trkpt lat="45.76737" lon="5.65316">
        <ele>264.5</ele>
        <time>2012-06-06T14:34:31Z</time>
      </trkpt>
      <trkpt lat="45.76722" lon="5.65318">
        <ele>263.54</ele>
        <time>2012-06-06T14:34:34Z</time>
      </trkpt>
      <trkpt lat="45.76686" lon="5.6532">
        <ele>261.62</ele>
        <time>2012-06-06T14:34:40Z</time>
      </trkpt>
      <trkpt lat="45.76637" lon="5.6534">
        <ele>257.29</ele>
        <time>2012-06-06T14:34:51Z</time>
      </trkpt>
      <trkpt lat="45.76567" lon="5.65365">
        <ele>251.52</ele>
        <time>2012-06-06T14:35:50Z</time>
      </trkpt>
      <trkpt lat="45.76495" lon="5.65369">
        <ele>250.56</ele>
        <time>2012-06-06T14:36:14Z</time>
      </trkpt>
      <trkpt lat="45.76448" lon="5.65361">
        <ele>250.08</ele>
        <time>2012-06-06T14:36:28Z</time>
      </trkpt>
      <trkpt lat="45.76404" lon="5.65373">
        <ele>250.08</ele>
        <time>2012-06-06T14:36:40Z</time>
      </trkpt>
      <trkpt lat="45.76356" lon="5.65387">
        <ele>250.56</ele>
        <time>2012-06-06T14:36:52Z</time>
      </trkpt>
      <trkpt lat="45.76317" lon="5.65399">
        <ele>249.6</ele>
        <time>2012-06-06T14:37:00Z</time>
      </trkpt>
      <trkpt lat="45.76278" lon="5.65397">
        <ele>247.68</ele>
        <time>2012-06-06T14:37:20Z</time>
      </trkpt>
      <trkpt lat="45.76201" lon="5.65426">
        <ele>243.83</ele>
        <time>2012-06-06T14:37:31Z</time>
      </trkpt>
      <trkpt lat="45.76118" lon="5.65461">
        <ele>239.99</ele>
        <time>2012-06-06T14:37:41Z</time>
      </trkpt>
      <trkpt lat="45.76105" lon="5.65473">
        <ele>239.99</ele>
        <time>2012-06-06T14:37:43Z</time>
      </trkpt>
      <trkpt lat="45.76094" lon="5.6549">
        <ele>239.99</ele>
        <time>2012-06-06T14:37:45Z</time>
      </trkpt>
      <trkpt lat="45.76085" lon="5.65522">
        <ele>239.51</ele>
        <time>2012-06-06T14:37:48Z</time>
      </trkpt>
      <trkpt lat="45.76061" lon="5.65665">
        <ele>239.02</ele>
        <time>2012-06-06T14:38:03Z</time>
      </trkpt>
      <trkpt lat="45.76053" lon="5.65709">
        <ele>239.02</ele>
        <time>2012-06-06T14:38:15Z</time>
      </trkpt>
      <trkpt lat="45.76041" lon="5.65747">
        <ele>238.06</ele>
        <time>2012-06-06T14:38:27Z</time>
      </trkpt>
      <trkpt lat="45.76" lon="5.65822">
        <ele>237.58</ele>
        <time>2012-06-06T14:38:39Z</time>
      </trkpt>
      <trkpt lat="45.75993" lon="5.65845">
        <ele>237.58</ele>
        <time>2012-06-06T14:38:42Z</time>
      </trkpt>
      <trkpt lat="45.75978" lon="5.6594">
        <ele>238.54</ele>
        <time>2012-06-06T14:38:55Z</time>
      </trkpt>
      <trkpt lat="45.75986" lon="5.66012">
        <ele>239.51</ele>
        <time>2012-06-06T14:39:08Z</time>
      </trkpt>
      <trkpt lat="45.75988" lon="5.66064">
        <ele>240.95</ele>
        <time>2012-06-06T14:39:20Z</time>
      </trkpt>
      <trkpt lat="45.75992" lon="5.66146">
        <ele>241.91</ele>
        <time>2012-06-06T14:39:35Z</time>
      </trkpt>
      <trkpt lat="45.76017" lon="5.66204">
        <ele>242.87</ele>
        <time>2012-06-06T14:39:50Z</time>
      </trkpt>
      <trkpt lat="45.76053" lon="5.66259">
        <ele>245.27</ele>
        <time>2012-06-06T14:40:08Z</time>
      </trkpt>
      <trkpt lat="45.76084" lon="5.66299">
        <ele>246.72</ele>
        <time>2012-06-06T14:40:24Z</time>
      </trkpt>
      <trkpt lat="45.76108" lon="5.66317">
        <ele>247.68</ele>
        <time>2012-06-06T14:40:38Z</time>
      </trkpt>
      <trkpt lat="45.7614" lon="5.66334">
        <ele>249.6</ele>
        <time>2012-06-06T14:40:54Z</time>
      </trkpt>
      <trkpt lat="45.76154" lon="5.66366">
        <ele>251.52</ele>
        <time>2012-06-06T14:41:07Z</time>
      </trkpt>
      <trkpt lat="45.76162" lon="5.66399">
        <ele>253.44</ele>
        <time>2012-06-06T14:41:20Z</time>
      </trkpt>
      <trkpt lat="45.76168" lon="5.66412">
        <ele>254.89</ele>
        <time>2012-06-06T14:41:26Z</time>
      </trkpt>
      <trkpt lat="45.7618" lon="5.66439">
        <ele>256.81</ele>
        <time>2012-06-06T14:41:41Z</time>
      </trkpt>
      <trkpt lat="45.76196" lon="5.66461">
        <ele>258.73</ele>
        <time>2012-06-06T14:41:56Z</time>
      </trkpt>
      <trkpt lat="45.76214" lon="5.66476">
        <ele>261.14</ele>
        <time>2012-06-06T14:42:12Z</time>
      </trkpt>
      <trkpt lat="45.76239" lon="5.66486">
        <ele>263.54</ele>
        <time>2012-06-06T14:42:28Z</time>
      </trkpt>
      <trkpt lat="45.76256" lon="5.66481">
        <ele>265.46</ele>
        <time>2012-06-06T14:42:43Z</time>
      </trkpt>
      <trkpt lat="45.76265" lon="5.66472">
        <ele>266.42</ele>
        <time>2012-06-06T14:42:51Z</time>
      </trkpt>
      <trkpt lat="45.76288" lon="5.66458">
        <ele>268.83</ele>
        <time>2012-06-06T14:43:06Z</time>
      </trkpt>
      <trkpt lat="45.76316" lon="5.6645">
        <ele>271.71</ele>
        <time>2012-06-06T14:43:23Z</time>
      </trkpt>
      <trkpt lat="45.7634" lon="5.66431">
        <ele>272.19</ele>
        <time>2012-06-06T14:43:37Z</time>
      </trkpt>
      <trkpt lat="45.76372" lon="5.66405">
        <ele>273.63</ele>
        <time>2012-06-06T14:43:53Z</time>
      </trkpt>
      <trkpt lat="45.76423" lon="5.66381">
        <ele>275.56</ele>
        <time>2012-06-06T14:44:36Z</time>
      </trkpt>
      <trkpt lat="45.76462" lon="5.66376">
        <ele>277</ele>
        <time>2012-06-06T14:44:50Z</time>
      </trkpt>
      <trkpt lat="45.76499" lon="5.66396">
        <ele>277.96</ele>
        <time>2012-06-06T14:45:04Z</time>
      </trkpt>
      <trkpt lat="45.76512" lon="5.66406">
        <ele>278.44</ele>
        <time>2012-06-06T14:45:09Z</time>
      </trkpt>
      <trkpt lat="45.7652" lon="5.66491">
        <ele>277.96</ele>
        <time>2012-06-06T14:45:24Z</time>
      </trkpt>
      <trkpt lat="45.76519" lon="5.66508">
        <ele>278.44</ele>
        <time>2012-06-06T14:45:27Z</time>
      </trkpt>
      <trkpt lat="45.76494" lon="5.66602">
        <ele>279.88</ele>
        <time>2012-06-06T14:45:45Z</time>
      </trkpt>
      <trkpt lat="45.76451" lon="5.66656">
        <ele>280.84</ele>
        <time>2012-06-06T14:46:01Z</time>
      </trkpt>
      <trkpt lat="45.76395" lon="5.66703">
        <ele>282.77</ele>
        <time>2012-06-06T14:46:18Z</time>
      </trkpt>
      <trkpt lat="45.7636" lon="5.66755">
        <ele>283.73</ele>
        <time>2012-06-06T14:46:30Z</time>
      </trkpt>
      <trkpt lat="45.76311" lon="5.66807">
        <ele>284.21</ele>
        <time>2012-06-06T14:46:46Z</time>
      </trkpt>
      <trkpt lat="45.7628" lon="5.66819">
        <ele>286.13</ele>
        <time>2012-06-06T14:46:55Z</time>
      </trkpt>
      <trkpt lat="45.76242" lon="5.66833">
        <ele>288.05</ele>
        <time>2012-06-06T14:47:09Z</time>
      </trkpt>
      <trkpt lat="45.76181" lon="5.66854">
        <ele>288.53</ele>
        <time>2012-06-06T14:47:27Z</time>
      </trkpt>
      <trkpt lat="45.76122" lon="5.66905">
        <ele>287.57</ele>
        <time>2012-06-06T14:47:41Z</time>
      </trkpt>
      <trkpt lat="45.76064" lon="5.66974">
        <ele>285.65</ele>
        <time>2012-06-06T14:47:56Z</time>
      </trkpt>
      <trkpt lat="45.76041" lon="5.66998">
        <ele>283.73</ele>
        <time>2012-06-06T14:48:01Z</time>
      </trkpt>
      <trkpt lat="45.75965" lon="5.67052">
        <ele>282.77</ele>
        <time>2012-06-06T14:48:15Z</time>
      </trkpt>
      <trkpt lat="45.75917" lon="5.67123">
        <ele>284.69</ele>
        <time>2012-06-06T14:48:28Z</time>
      </trkpt>
      <trkpt lat="45.75888" lon="5.6717">
        <ele>286.61</ele>
        <time>2012-06-06T14:48:38Z</time>
      </trkpt>
      <trkpt lat="45.75855" lon="5.67229">
        <ele>288.05</ele>
        <time>2012-06-06T14:48:52Z</time>
      </trkpt>
      <trkpt lat="45.75829" lon="5.67299">
        <ele>289.01</ele>
        <time>2012-06-06T14:49:07Z</time>
      </trkpt>
      <trkpt lat="45.75806" lon="5.67309">
        <ele>287.09</ele>
        <time>2012-06-06T14:49:13Z</time>
      </trkpt>
      <trkpt lat="45.75749" lon="5.67295">
        <ele>284.69</ele>
        <time>2012-06-06T14:49:35Z</time>
      </trkpt>
      <trkpt lat="45.75727" lon="5.67322">
        <ele>285.17</ele>
        <time>2012-06-06T14:49:45Z</time>
      </trkpt>
      <trkpt lat="45.75686" lon="5.67374">
        <ele>288.53</ele>
        <time>2012-06-06T14:50:00Z</time>
      </trkpt>
      <trkpt lat="45.7564" lon="5.67442">
        <ele>291.42</ele>
        <time>2012-06-06T14:50:18Z</time>
      </trkpt>
      <trkpt lat="45.75594" lon="5.67537">
        <ele>291.42</ele>
        <time>2012-06-06T14:50:36Z</time>
      </trkpt>
      <trkpt lat="45.75554" lon="5.67657">
        <ele>291.42</ele>
        <time>2012-06-06T14:50:53Z</time>
      </trkpt>
      <trkpt lat="45.75534" lon="5.67717">
        <ele>291.42</ele>
        <time>2012-06-06T14:51:02Z</time>
      </trkpt>
      <trkpt lat="45.75531" lon="5.6783">
        <ele>292.38</ele>
        <time>2012-06-06T14:51:19Z</time>
      </trkpt>
      <trkpt lat="45.75524" lon="5.67912">
        <ele>294.3</ele>
        <time>2012-06-06T14:51:34Z</time>
      </trkpt>
      <trkpt lat="45.75508" lon="5.67968">
        <ele>297.18</ele>
        <time>2012-06-06T14:51:45Z</time>
      </trkpt>
      <trkpt lat="45.75488" lon="5.68019">
        <ele>299.11</ele>
        <time>2012-06-06T14:51:58Z</time>
      </trkpt>
      <trkpt lat="45.75474" lon="5.68044">
        <ele>299.11</ele>
        <time>2012-06-06T14:52:04Z</time>
      </trkpt>
      <trkpt lat="45.75471" lon="5.68054">
        <ele>299.59</ele>
        <time>2012-06-06T14:52:06Z</time>
      </trkpt>
      <trkpt lat="45.75473" lon="5.68065">
        <ele>299.59</ele>
        <time>2012-06-06T14:52:08Z</time>
      </trkpt>
      <trkpt lat="45.75479" lon="5.68072">
        <ele>299.11</ele>
        <time>2012-06-06T14:52:10Z</time>
      </trkpt>
      <trkpt lat="45.75546" lon="5.68131">
        <ele>299.11</ele>
        <time>2012-06-06T14:52:26Z</time>
      </trkpt>
      <trkpt lat="45.7557" lon="5.68148">
        <ele>298.63</ele>
        <time>2012-06-06T14:52:31Z</time>
      </trkpt>
      <trkpt lat="45.75593" lon="5.68163">
        <ele>298.15</ele>
        <time>2012-06-06T14:52:36Z</time>
      </trkpt>
      <trkpt lat="45.75597" lon="5.68175">
        <ele>298.15</ele>
        <time>2012-06-06T14:52:38Z</time>
      </trkpt>
      <trkpt lat="45.75571" lon="5.68328">
        <ele>295.74</ele>
        <time>2012-06-06T14:52:54Z</time>
      </trkpt>
      <trkpt lat="45.75567" lon="5.68355">
        <ele>295.26</ele>
        <time>2012-06-06T14:52:57Z</time>
      </trkpt>
      <trkpt lat="45.75569" lon="5.68372">
        <ele>295.26</ele>
        <time>2012-06-06T14:52:59Z</time>
      </trkpt>
      <trkpt lat="45.75578" lon="5.68397">
        <ele>294.78</ele>
        <time>2012-06-06T14:53:02Z</time>
      </trkpt>
      <trkpt lat="45.75619" lon="5.68506">
        <ele>291.9</ele>
        <time>2012-06-06T14:53:13Z</time>
      </trkpt>
      <trkpt lat="45.7566" lon="5.68624">
        <ele>291.42</ele>
        <time>2012-06-06T14:53:27Z</time>
      </trkpt>
      <trkpt lat="45.75743" lon="5.68626">
        <ele>289.97</ele>
        <time>2012-06-06T14:53:42Z</time>
      </trkpt>
      <trkpt lat="45.75825" lon="5.68629">
        <ele>287.57</ele>
        <time>2012-06-06T14:53:59Z</time>
      </trkpt>
      <trkpt lat="45.75808" lon="5.68767">
        <ele>283.73</ele>
        <time>2012-06-06T14:54:13Z</time>
      </trkpt>
      <trkpt lat="45.75779" lon="5.68862">
        <ele>285.17</ele>
        <time>2012-06-06T14:56:09Z</time>
      </trkpt>
      <trkpt lat="45.75802" lon="5.68909">
        <ele>283.73</ele>
        <time>2012-06-06T14:56:35Z</time>
      </trkpt>
      <trkpt lat="45.75802" lon="5.68911">
        <ele>284.21</ele>
        <time>2012-06-06T14:56:52Z</time>
      </trkpt>
    </trkseg>
  </trk>
</gpx>